Observation data for Guadalupe Mtns Park on 09/24/2020      Previous  Date  Next       Current Mesonet Observations  Soil Data  Daily Summary Page  Observations in Plain Language
KGU1 240500Z 29011KT 22/03 A3017 RMK A01 T02180028  RH  029%=      5-min Rain = 0
KGU1 240501Z 29011KT 22/03 A3017 RMK A01 T02190027  RH  029%=      5-min Rain = 0
KGU1 240502Z 29011KT 22/03 A3017 RMK A01 T02200028  RH  029%=      5-min Rain = 0
KGU1 240503Z 29011KT 22/03 A3017 RMK A01 T02200028  RH  029%=      5-min Rain = 0
KGU1 240504Z 29011KT 22/03 A3017 RMK A01 T02200028  RH  029%=      5-min Rain = 0
KGU1 240505Z 29011KT 22/03 A3017 RMK A01 T02190028  RH  029%=      5-min Rain = 0
KGU1 240506Z 29011KT 22/03 A3017 RMK A01 T02190028  RH  029%=      5-min Rain = 0
KGU1 240507Z 29010KT 22/03 A3017 RMK A01 T02180028  RH  029%=      5-min Rain = 0
KGU1 240508Z 29010KT 22/03 A3017 RMK A01 T02180028  RH  029%=      5-min Rain = 0
KGU1 240509Z 29010KT 22/03 A3017 RMK A01 T02180028  RH  029%=      5-min Rain = 0
KGU1 240510Z 29011KT 22/03 A3017 RMK A01 T02180028  RH  029%=      5-min Rain = 0
KGU1 240511Z 29011KT 22/03 A3017 RMK A01 T02180028  RH  029%=      5-min Rain = 0
KGU1 240512Z 29010KT 22/03 A3017 RMK A01 T02190028  RH  029%=      5-min Rain = 0
KGU1 240513Z 29010KT 22/03 A3017 RMK A01 T02190028  RH  029%=      5-min Rain = 0
KGU1 240514Z 29010KT 22/03 A3017 RMK A01 T02180028  RH  029%=      5-min Rain = 0
KGU1 240515Z 29011KT 22/03 A3017 RMK A01 T02180028  RH  029%=      5-min Rain = 0
KGU1 240516Z 29011KT 22/03 A3017 RMK A01 T02190028  RH  029%=      5-min Rain = 0
KGU1 240517Z 29011KT 22/03 A3017 RMK A01 T02200028  RH  029%=      5-min Rain = 0
KGU1 240518Z 29011KT 22/03 A3017 RMK A01 T02200028  RH  029%=      5-min Rain = 0
KGU1 240519Z 29011KT 22/03 A3017 RMK A01 T02200028  RH  029%=      5-min Rain = 0
KGU1 240520Z 29010KT 22/03 A3017 RMK A01 T02190028  RH  029%=      5-min Rain = 0
KGU1 240521Z 29010KT 22/03 A3017 RMK A01 T02190028  RH  029%=      5-min Rain = 0
KGU1 240522Z 29010KT 22/03 A3017 RMK A01 T02180028  RH  029%=      5-min Rain = 0
KGU1 240523Z 29011KT 22/03 A3017 RMK A01 T02180028  RH  029%=      5-min Rain = 0
KGU1 240524Z 29010KT 22/03 A3017 RMK A01 T02180027  RH  029%=      5-min Rain = 0
KGU1 240525Z 29011KT 22/03 A3017 RMK A01 T02190027  RH  029%=      5-min Rain = 0
KGU1 240526Z 29010KT 22/03 A3017 RMK A01 T02200028  RH  029%=      5-min Rain = 0
KGU1 240527Z 29011KT 22/03 A3017 RMK A01 T02200027  RH  029%=      5-min Rain = 0
KGU1 240528Z 29011KT 22/03 A3017 RMK A01 T02210027  RH  028%=      5-min Rain = 0
KGU1 240529Z 29010KT 22/03 A3017 RMK A01 T02220027  RH  028%=      5-min Rain = 0
KGU1 240530Z 29011KT 22/03 A3017 RMK A01 T02220027  RH  028%=      5-min Rain = 0
KGU1 240531Z 29010KT 22/03 A3017 RMK A01 T02220027  RH  028%=      5-min Rain = 0
KGU1 240532Z 30010KT 22/03 A3017 RMK A01 T02220028  RH  028%=      5-min Rain = 0
KGU1 240533Z 30009KT 22/03 A3017 RMK A01 T02210027  RH  028%=      5-min Rain = 0
KGU1 240534Z 30008KT 22/03 A3017 RMK A01 T02210027  RH  028%=      5-min Rain = 0
KGU1 240535Z 30007KT 22/03 A3017 RMK A01 T02210027  RH  028%=      5-min Rain = 0
KGU1 240536Z 31007KT 22/03 A3017 RMK A01 T02220027  RH  028%=      5-min Rain = 0
KGU1 240537Z 05005KT 22/03 A3018 RMK A01 T02200028  RH  029%=      5-min Rain = 0
KGU1 240538Z 07003KT 22/03 A3018 RMK A01 T02170030  RH  030%=      5-min Rain = 0
KGU1 240539Z 09003KT 22/03 A3018 RMK A01 T02170030  RH  030%=      5-min Rain = 0
KGU1 240540Z 11005KT 22/03 A3018 RMK A01 T02170030  RH  030%=      5-min Rain = 0
KGU1 240541Z 10006KT 22/03 A3018 RMK A01 T02170030  RH  030%=      5-min Rain = 0
KGU1 240542Z 08005KT 22/03 A3018 RMK A01 T02160031  RH  030%=      5-min Rain = 0
KGU1 240543Z 07008KT 22/03 A3018 RMK A01 T02150031  RH  030%=      5-min Rain = 0
KGU1 240544Z 05007KT 22/03 A3018 RMK A01 T02180032  RH  030%=      5-min Rain = 0
KGU1 240545Z 03006KT 22/03 A3018 RMK A01 T02200031  RH  029%=      5-min Rain = 0
KGU1 240546Z 05006KT 22/03 A3018 RMK A01 T02210031  RH  029%=      5-min Rain = 0
KGU1 240547Z 06008KT 22/03 A3018 RMK A01 T02220032  RH  029%=      5-min Rain = 0
KGU1 240548Z 06008KT 22/03 A3018 RMK A01 T02230031  RH  029%=      5-min Rain = 0
KGU1 240549Z 05006KT 22/03 A3018 RMK A01 T02230031  RH  029%=      5-min Rain = 0
KGU1 240550Z 06006KT 22/03 A3018 RMK A01 T02240031  RH  029%=      5-min Rain = 0
KGU1 240551Z 06003KT 22/03 A3018 RMK A01 T02230032  RH  029%=      5-min Rain = 0
KGU1 240552Z 06004KT 22/03 A3018 RMK A01 T02210033  RH  030%=      5-min Rain = 0
KGU1 240553Z 05004KT 22/03 A3018 RMK A01 T02190033  RH  030%=      5-min Rain = 0
KGU1 240554Z 05004KT 22/03 A3018 RMK A01 T02170034  RH  031%=      5-min Rain = 0
KGU1 240555Z 05004KT 21/03 A3018 RMK A01 T02140034  RH  031%=      5-min Rain = 0
KGU1 240556Z 05003KT 21/03 A3018 RMK A01 T02120034  RH  032%=      5-min Rain = 0
KGU1 240557Z 05003KT 21/04 A3018 RMK A01 T02100035  RH  032%=      5-min Rain = 0
KGU1 240558Z 05004KT 21/04 A3018 RMK A01 T02080036  RH  033%=      5-min Rain = 0
KGU1 240559Z 03003KT 21/04 A3018 RMK A01 T02050036  RH  033%=      5-min Rain = 0
KGU1 240600Z 02003KT 20/04 A3018 RMK A01 T02030037  RH  034%=      5-min Rain = 0
KGU1 240601Z 02003KT 20/04 A3018 RMK A01 T02010038  RH  035%=      5-min Rain = 0
KGU1 240602Z 04002KT 20/04 A3018 RMK A01 T02000039  RH  035%=      5-min Rain = 0
KGU1 240603Z 03002KT 20/04 A3018 RMK A01 T01990039  RH  035%=      5-min Rain = 0
KGU1 240604Z 03003KT 20/04 A3018 RMK A01 T01980039  RH  035%=      5-min Rain = 0
KGU1 240605Z 02002KT 20/04 A3018 RMK A01 T01980039  RH  036%=      5-min Rain = 0
KGU1 240606Z 34002KT 20/04 A3018 RMK A01 T01980039  RH  036%=      5-min Rain = 0
KGU1 240607Z 33004KT 20/04 A3018 RMK A01 T01980038  RH  035%=      5-min Rain = 0
KGU1 240608Z 34004KT 20/04 A3018 RMK A01 T01990037  RH  035%=      5-min Rain = 0
KGU1 240609Z 35004KT 20/04 A3018 RMK A01 T02000037  RH  035%=      5-min Rain = 0
KGU1 240610Z 36004KT 20/04 A3018 RMK A01 T02000038  RH  035%=      5-min Rain = 0
KGU1 240611Z 01006KT 20/04 A3018 RMK A01 T02000037  RH  035%=      5-min Rain = 0
KGU1 240612Z 02005KT 20/04 A3018 RMK A01 T02030038  RH  034%=      5-min Rain = 0
KGU1 240613Z 02005KT 20/04 A3018 RMK A01 T02040039  RH  034%=      5-min Rain = 0
KGU1 240614Z 02005KT 21/04 A3018 RMK A01 T02050039  RH  034%=      5-min Rain = 0
KGU1 240615Z 02006KT 21/04 A3018 RMK A01 T02060038  RH  034%=      5-min Rain = 0
KGU1 240616Z 02005KT 21/04 A3018 RMK A01 T02080038  RH  033%=      5-min Rain = 0
KGU1 240617Z 01005KT 21/04 A3018 RMK A01 T02080038  RH  033%=      5-min Rain = 0
KGU1 240618Z 01005KT 21/04 A3018 RMK A01 T02080038  RH  033%=      5-min Rain = 0
KGU1 240619Z 01005KT 21/04 A3018 RMK A01 T02090038  RH  033%=      5-min Rain = 0
KGU1 240620Z 00006KT 21/04 A3018 RMK A01 T02100038  RH  033%=      5-min Rain = 0
KGU1 240621Z 01005KT 21/04 A3018 RMK A01 T02100038  RH  033%=      5-min Rain = 0
KGU1 240622Z 01005KT 21/04 A3018 RMK A01 T02090038  RH  033%=      5-min Rain = 0
KGU1 240623Z 00004KT 21/04 A3018 RMK A01 T02090038  RH  033%=      5-min Rain = 0
KGU1 240624Z 00004KT 21/04 A3018 RMK A01 T02080038  RH  033%=      5-min Rain = 0
KGU1 240625Z 36004KT 21/04 A3018 RMK A01 T02070038  RH  033%=      5-min Rain = 0
KGU1 240626Z 01004KT 21/04 A3018 RMK A01 T02060038  RH  034%=      5-min Rain = 0
KGU1 240627Z 02005KT 21/04 A3018 RMK A01 T02060039  RH  034%=      5-min Rain = 0
KGU1 240628Z 02004KT 21/04 A3018 RMK A01 T02060039  RH  034%=      5-min Rain = 0
KGU1 240629Z 02004KT 20/04 A3018 RMK A01 T02040040  RH  034%=      5-min Rain = 0
KGU1 240630Z 02003KT 20/04 A3018 RMK A01 T02030039  RH  035%=      5-min Rain = 0
KGU1 240631Z 03003KT 20/04 A3018 RMK A01 T02030040  RH  035%=      5-min Rain = 0
KGU1 240632Z 03003KT 20/04 A3018 RMK A01 T02030040  RH  035%=      5-min Rain = 0
KGU1 240633Z 04002KT 20/04 A3018 RMK A01 T02030040  RH  035%=      5-min Rain = 0
KGU1 240634Z 05002KT 20/04 A3018 RMK A01 T02020041  RH  035%=      5-min Rain = 0
KGU1 240635Z 06003KT 20/04 A3018 RMK A01 T02010042  RH  036%=      5-min Rain = 0
KGU1 240636Z 06004KT 20/04 A3018 RMK A01 T02000043  RH  036%=      5-min Rain = 0
KGU1 240637Z 06004KT 20/04 A3018 RMK A01 T01990044  RH  037%=      5-min Rain = 0
KGU1 240638Z 05005KT 20/05 A3018 RMK A01 T01980045  RH  037%=      5-min Rain = 0
KGU1 240639Z 05004KT 20/05 A3018 RMK A01 T01970045  RH  037%=      5-min Rain = 0
KGU1 240640Z 04006KT 20/05 A3018 RMK A01 T01950045  RH  038%=      5-min Rain = 0
KGU1 240641Z 04007KT 19/04 A3018 RMK A01 T01940044  RH  038%=      5-min Rain = 0
KGU1 240642Z 04007KT 20/05 A3018 RMK A01 T01950045  RH  038%=      5-min Rain = 0
KGU1 240643Z 04006KT 20/05 A3018 RMK A01 T01960045  RH  038%=      5-min Rain = 0
KGU1 240644Z 05005KT 20/05 A3018 RMK A01 T01960045  RH  038%=      5-min Rain = 0
KGU1 240645Z 04006KT 20/05 A3018 RMK A01 T01960046  RH  038%=      5-min Rain = 0
KGU1 240646Z 04006KT 20/05 A3018 RMK A01 T01960046  RH  038%=      5-min Rain = 0
KGU1 240647Z 03006KT 20/05 A3018 RMK A01 T01960047  RH  038%=      5-min Rain = 0
KGU1 240648Z 02006KT 20/05 A3018 RMK A01 T01960046  RH  038%=      5-min Rain = 0
KGU1 240649Z 02006KT 20/05 A3018 RMK A01 T01980046  RH  038%=      5-min Rain = 0
KGU1 240650Z 02006KT 20/05 A3018 RMK A01 T01980046  RH  038%=      5-min Rain = 0
KGU1 240651Z 01006KT 20/05 A3018 RMK A01 T01980046  RH  038%=      5-min Rain = 0
KGU1 240652Z 01006KT 20/05 A3018 RMK A01 T01970046  RH  038%=      5-min Rain = 0
KGU1 240653Z 01006KT 20/05 A3018 RMK A01 T01970046  RH  038%=      5-min Rain = 0
KGU1 240654Z 01006KT 20/05 A3018 RMK A01 T01970046  RH  038%=      5-min Rain = 0
KGU1 240655Z 01006KT 20/05 A3018 RMK A01 T01970045  RH  038%=      5-min Rain = 0
KGU1 240656Z 01006KT 20/05 A3018 RMK A01 T01980045  RH  037%=      5-min Rain = 0
KGU1 240657Z 01006KT 20/05 A3018 RMK A01 T01990045  RH  037%=      5-min Rain = 0
KGU1 240658Z 01006KT 20/05 A3018 RMK A01 T02000045  RH  037%=      5-min Rain = 0
KGU1 240659Z 01006KT 20/05 A3018 RMK A01 T02000045  RH  037%=      5-min Rain = 0
KGU1 240700Z 01006KT 20/05 A3018 RMK A01 T02010045  RH  037%=      5-min Rain = 0
KGU1 240701Z 01005KT 20/04 A3018 RMK A01 T02010044  RH  036%=      5-min Rain = 0
KGU1 240702Z 01004KT 20/04 A3018 RMK A01 T02020044  RH  036%=      5-min Rain = 0
KGU1 240703Z 01004KT 20/04 A3018 RMK A01 T02030044  RH  036%=      5-min Rain = 0
KGU1 240704Z 01005KT 20/04 A3018 RMK A01 T02030044  RH  036%=      5-min Rain = 0
KGU1 240705Z 05003KT 20/04 A3018 RMK A01 T02020044  RH  036%=      5-min Rain = 0
KGU1 240706Z 04003KT 20/05 A3018 RMK A01 T01990047  RH  038%=      5-min Rain = 0
KGU1 240707Z 03004KT 20/05 A3018 RMK A01 T01960046  RH  038%=      5-min Rain = 0
KGU1 240708Z 03004KT 20/05 A3018 RMK A01 T01950046  RH  038%=      5-min Rain = 0
KGU1 240709Z 02005KT 19/05 A3018 RMK A01 T01930046  RH  039%=      5-min Rain = 0
KGU1 240710Z 02005KT 19/05 A3018 RMK A01 T01930046  RH  039%=      5-min Rain = 0
KGU1 240711Z 02005KT 19/05 A3018 RMK A01 T01930046  RH  039%=      5-min Rain = 0
KGU1 240712Z 02005KT 19/05 A3018 RMK A01 T01930046  RH  039%=      5-min Rain = 0
KGU1 240713Z 02005KT 19/05 A3018 RMK A01 T01930046  RH  039%=      5-min Rain = 0
KGU1 240714Z 02006KT 19/05 A3018 RMK A01 T01920046  RH  039%=      5-min Rain = 0
KGU1 240715Z 02006KT 19/05 A3018 RMK A01 T01920046  RH  039%=      5-min Rain = 0
KGU1 240716Z 02006KT 19/05 A3018 RMK A01 T01930046  RH  039%=      5-min Rain = 0
KGU1 240717Z 02006KT 19/05 A3018 RMK A01 T01930046  RH  039%=      5-min Rain = 0
KGU1 240718Z 01006KT 19/05 A3018 RMK A01 T01930045  RH  039%=      5-min Rain = 0
KGU1 240719Z 36006KT 19/05 A3018 RMK A01 T01940045  RH  038%=      5-min Rain = 0
KGU1 240720Z 01006KT 20/05 A3018 RMK A01 T01950045  RH  038%=      5-min Rain = 0
KGU1 240721Z 00006KT 20/04 A3018 RMK A01 T01960044  RH  037%=      5-min Rain = 0
KGU1 240722Z 00005KT 20/04 A3018 RMK A01 T01970044  RH  037%=      5-min Rain = 0
KGU1 240723Z 01005KT 20/04 A3017 RMK A01 T01980044  RH  037%=      5-min Rain = 0
KGU1 240724Z 36005KT 20/04 A3017 RMK A01 T01990044  RH  037%=      5-min Rain = 0
KGU1 240725Z 35005KT 20/04 A3017 RMK A01 T01990044  RH  037%=      5-min Rain = 0
KGU1 240726Z 35004KT 20/04 A3017 RMK A01 T02000043  RH  036%=      5-min Rain = 0
KGU1 240727Z 35004KT 20/04 A3017 RMK A01 T02000043  RH  036%=      5-min Rain = 0
KGU1 240728Z 33004KT 20/04 A3017 RMK A01 T01990043  RH  037%=      5-min Rain = 0
KGU1 240729Z 33004KT 20/04 A3017 RMK A01 T01980043  RH  037%=      5-min Rain = 0
KGU1 240730Z 33004KT 20/04 A3017 RMK A01 T01950043  RH  037%=      5-min Rain = 0
KGU1 240731Z 34004KT 19/04 A3017 RMK A01 T01920043  RH  038%=      5-min Rain = 0
KGU1 240732Z 33004KT 19/04 A3017 RMK A01 T01890042  RH  039%=      5-min Rain = 0
KGU1 240733Z 33004KT 19/04 A3017 RMK A01 T01860042  RH  039%=      5-min Rain = 0
KGU1 240734Z 31004KT 19/04 A3017 RMK A01 T01850042  RH  040%=      5-min Rain = 0
KGU1 240735Z 32003KT 18/04 A3017 RMK A01 T01840041  RH  040%=      5-min Rain = 0
KGU1 240736Z 33003KT 19/04 A3017 RMK A01 T01860040  RH  039%=      5-min Rain = 0
KGU1 240737Z 33003KT 19/04 A3017 RMK A01 T01880040  RH  038%=      5-min Rain = 0
KGU1 240738Z 33002KT 19/04 A3017 RMK A01 T01890038  RH  038%=      5-min Rain = 0
KGU1 240739Z 34002KT 19/04 A3017 RMK A01 T01900039  RH  037%=      5-min Rain = 0
KGU1 240740Z 35002KT 19/04 A3017 RMK A01 T01920039  RH  037%=      5-min Rain = 0
KGU1 240741Z 36002KT 19/04 A3017 RMK A01 T01930039  RH  037%=      5-min Rain = 0
KGU1 240742Z 36003KT 20/04 A3017 RMK A01 T01960040  RH  036%=      5-min Rain = 0
KGU1 240743Z 01003KT 20/04 A3017 RMK A01 T01990041  RH  036%=      5-min Rain = 0
KGU1 240744Z 03003KT 20/04 A3017 RMK A01 T02010043  RH  036%=      5-min Rain = 0
KGU1 240745Z 01002KT 20/04 A3017 RMK A01 T02030043  RH  036%=      5-min Rain = 0
KGU1 240746Z 03004KT 20/04 A3017 RMK A01 T02040043  RH  035%=      5-min Rain = 0
KGU1 240747Z 02004KT 21/04 A3017 RMK A01 T02050043  RH  035%=      5-min Rain = 0
KGU1 240748Z 01003KT 21/04 A3017 RMK A01 T02050043  RH  035%=      5-min Rain = 0
KGU1 240749Z 02004KT 20/04 A3017 RMK A01 T02030043  RH  036%=      5-min Rain = 0
KGU1 240750Z 02004KT 20/04 A3018 RMK A01 T02000044  RH  036%=      5-min Rain = 0
KGU1 240751Z 03004KT 20/05 A3018 RMK A01 T01990045  RH  037%=      5-min Rain = 0
KGU1 240752Z 02004KT 20/04 A3018 RMK A01 T01980044  RH  037%=      5-min Rain = 0
KGU1 240753Z 02004KT 20/04 A3018 RMK A01 T01960044  RH  037%=      5-min Rain = 0
KGU1 240754Z 02004KT 20/04 A3018 RMK A01 T01950044  RH  038%=      5-min Rain = 0
KGU1 240755Z 02005KT 19/05 A3018 RMK A01 T01940045  RH  038%=      5-min Rain = 0
KGU1 240756Z 01005KT 20/05 A3018 RMK A01 T01950045  RH  038%=      5-min Rain = 0
KGU1 240757Z 02005KT 20/05 A3018 RMK A01 T01950045  RH  038%=      5-min Rain = 0
KGU1 240758Z 02005KT 19/05 A3018 RMK A01 T01940046  RH  038%=      5-min Rain = 0
KGU1 240759Z 01005KT 19/05 A3018 RMK A01 T01920046  RH  039%=      5-min Rain = 0
KGU1 240800Z 02006KT 19/05 A3018 RMK A01 T01910047  RH  039%=      5-min Rain = 0
KGU1 240801Z 02006KT 19/05 A3018 RMK A01 T01900047  RH  040%=      5-min Rain = 0
KGU1 240802Z 02007KT 19/05 A3018 RMK A01 T01890048  RH  040%=      5-min Rain = 0
KGU1 240803Z 02006KT 19/05 A3018 RMK A01 T01890048  RH  040%=      5-min Rain = 0
KGU1 240804Z 02005KT 19/05 A3017 RMK A01 T01890048  RH  040%=      5-min Rain = 0
KGU1 240805Z 02005KT 19/05 A3017 RMK A01 T01890049  RH  041%=      5-min Rain = 0
KGU1 240806Z 03005KT 19/05 A3017 RMK A01 T01880049  RH  041%=      5-min Rain = 0
KGU1 240807Z 02005KT 19/05 A3017 RMK A01 T01870049  RH  041%=      5-min Rain = 0
KGU1 240808Z 02004KT 19/05 A3017 RMK A01 T01870049  RH  041%=      5-min Rain = 0
KGU1 240809Z 01004KT 19/05 A3017 RMK A01 T01870049  RH  041%=      5-min Rain = 0
KGU1 240810Z 01004KT 19/05 A3017 RMK A01 T01870049  RH  041%=      5-min Rain = 0
KGU1 240811Z 02004KT 19/05 A3017 RMK A01 T01860049  RH  041%=      5-min Rain = 0
KGU1 240812Z 01004KT 19/05 A3017 RMK A01 T01860049  RH  041%=      5-min Rain = 0
KGU1 240813Z 01004KT 19/05 A3017 RMK A01 T01850049  RH  042%=      5-min Rain = 0
KGU1 240814Z 00004KT 19/05 A3017 RMK A01 T01850049  RH  042%=      5-min Rain = 0
KGU1 240815Z 35004KT 19/05 A3017 RMK A01 T01860050  RH  041%=      5-min Rain = 0
KGU1 240816Z 35003KT 19/05 A3017 RMK A01 T01870049  RH  041%=      5-min Rain = 0
KGU1 240817Z 34003KT 19/05 A3017 RMK A01 T01870049  RH  041%=      5-min Rain = 0
KGU1 240818Z 35003KT 19/05 A3017 RMK A01 T01880049  RH  041%=      5-min Rain = 0
KGU1 240819Z 35003KT 19/05 A3017 RMK A01 T01880049  RH  041%=      5-min Rain = 0
KGU1 240820Z 34003KT 19/05 A3017 RMK A01 T01870049  RH  041%=      5-min Rain = 0
KGU1 240821Z 34003KT 19/05 A3017 RMK A01 T01870048  RH  041%=      5-min Rain = 0
KGU1 240822Z 33004KT 19/05 A3017 RMK A01 T01850047  RH  041%=      5-min Rain = 0
KGU1 240823Z 33004KT 18/05 A3017 RMK A01 T01840046  RH  041%=      5-min Rain = 0
KGU1 240824Z 33005KT 18/05 A3017 RMK A01 T01810045  RH  041%=      5-min Rain = 0
KGU1 240825Z 33004KT 18/04 A3017 RMK A01 T01790044  RH  042%=      5-min Rain = 0
KGU1 240826Z 34004KT 18/04 A3017 RMK A01 T01780043  RH  042%=      5-min Rain = 0
KGU1 240827Z 34004KT 18/04 A3017 RMK A01 T01770043  RH  042%=      5-min Rain = 0
KGU1 240828Z 34004KT 18/04 A3017 RMK A01 T01770043  RH  042%=      5-min Rain = 0
KGU1 240829Z 35004KT 18/04 A3017 RMK A01 T01760043  RH  042%=      5-min Rain = 0
KGU1 240830Z 35004KT 18/04 A3017 RMK A01 T01750043  RH  042%=      5-min Rain = 0
KGU1 240831Z 35004KT 18/04 A3017 RMK A01 T01750044  RH  043%=      5-min Rain = 0
KGU1 240832Z 35005KT 18/05 A3017 RMK A01 T01760045  RH  043%=      5-min Rain = 0
KGU1 240833Z 35004KT 18/05 A3017 RMK A01 T01760045  RH  043%=      5-min Rain = 0
KGU1 240834Z 35004KT 18/05 A3017 RMK A01 T01760046  RH  043%=      5-min Rain = 0
KGU1 240835Z 35004KT 18/05 A3017 RMK A01 T01760046  RH  043%=      5-min Rain = 0
KGU1 240836Z 35004KT 18/05 A3017 RMK A01 T01760046  RH  043%=      5-min Rain = 0
KGU1 240837Z 34004KT 18/05 A3017 RMK A01 T01750047  RH  044%=      5-min Rain = 0
KGU1 240838Z 33004KT 17/05 A3017 RMK A01 T01740047  RH  044%=      5-min Rain = 0
KGU1 240839Z 33004KT 17/05 A3017 RMK A01 T01730047  RH  044%=      5-min Rain = 0
KGU1 240840Z 33004KT 17/05 A3017 RMK A01 T01730047  RH  044%=      5-min Rain = 0
KGU1 240841Z 34005KT 17/05 A3017 RMK A01 T01730047  RH  044%=      5-min Rain = 0
KGU1 240842Z 34005KT 17/05 A3017 RMK A01 T01730048  RH  044%=      5-min Rain = 0
KGU1 240843Z 34005KT 17/05 A3017 RMK A01 T01740048  RH  044%=      5-min Rain = 0
KGU1 240844Z 35005KT 17/05 A3017 RMK A01 T01740048  RH  044%=      5-min Rain = 0
KGU1 240845Z 35006KT 17/05 A3017 RMK A01 T01730049  RH  045%=      5-min Rain = 0
KGU1 240846Z 00006KT 17/05 A3017 RMK A01 T01730050  RH  045%=      5-min Rain = 0
KGU1 240847Z 35006KT 17/05 A3017 RMK A01 T01730050  RH  045%=      5-min Rain = 0
KGU1 240848Z 00006KT 17/05 A3017 RMK A01 T01740051  RH  045%=      5-min Rain = 0
KGU1 240849Z 35005KT 18/05 A3017 RMK A01 T01760052  RH  045%=      5-min Rain = 0
KGU1 240850Z 35005KT 18/05 A3017 RMK A01 T01780052  RH  044%=      5-min Rain = 0
KGU1 240851Z 35005KT 18/05 A3017 RMK A01 T01810052  RH  044%=      5-min Rain = 0
KGU1 240852Z 35005KT 18/05 A3017 RMK A01 T01820052  RH  043%=      5-min Rain = 0
KGU1 240853Z 34004KT 18/05 A3017 RMK A01 T01820052  RH  043%=      5-min Rain = 0
KGU1 240854Z 35004KT 18/05 A3017 RMK A01 T01820052  RH  043%=      5-min Rain = 0
KGU1 240855Z 34004KT 18/05 A3017 RMK A01 T01830052  RH  043%=      5-min Rain = 0
KGU1 240856Z 34004KT 18/05 A3017 RMK A01 T01830052  RH  043%=      5-min Rain = 0
KGU1 240857Z 34003KT 18/05 A3017 RMK A01 T01830052  RH  043%=      5-min Rain = 0
KGU1 240858Z 34003KT 18/05 A3017 RMK A01 T01810052  RH  044%=      5-min Rain = 0
KGU1 240859Z 33003KT 18/05 A3017 RMK A01 T01790052  RH  044%=      5-min Rain = 0
KGU1 240900Z 32003KT 18/05 A3017 RMK A01 T01770052  RH  045%=      5-min Rain = 0
KGU1 240901Z 32003KT 18/05 A3017 RMK A01 T01750051  RH  045%=      5-min Rain = 0
KGU1 240902Z 33003KT 17/05 A3017 RMK A01 T01730051  RH  046%=      5-min Rain = 0
KGU1 240903Z 31004KT 17/05 A3017 RMK A01 T01720050  RH  046%=      5-min Rain = 0
KGU1 240904Z 31003KT 17/05 A3017 RMK A01 T01700049  RH  046%=      5-min Rain = 0
KGU1 240905Z 32003KT 17/05 A3017 RMK A01 T01700049  RH  046%=      5-min Rain = 0
KGU1 240906Z 34003KT 17/05 A3017 RMK A01 T01700048  RH  046%=      5-min Rain = 0
KGU1 240907Z 34003KT 17/05 A3017 RMK A01 T01720048  RH  045%=      5-min Rain = 0
KGU1 240908Z 35003KT 17/05 A3017 RMK A01 T01730048  RH  045%=      5-min Rain = 0
KGU1 240909Z 35004KT 17/05 A3017 RMK A01 T01720048  RH  045%=      5-min Rain = 0
KGU1 240910Z 00004KT 17/05 A3017 RMK A01 T01710048  RH  045%=      5-min Rain = 0
KGU1 240911Z 36004KT 17/05 A3017 RMK A01 T01700049  RH  046%=      5-min Rain = 0
KGU1 240912Z 00003KT 17/05 A3017 RMK A01 T01710049  RH  045%=      5-min Rain = 0
KGU1 240913Z 35003KT 17/05 A3017 RMK A01 T01700048  RH  045%=      5-min Rain = 0
KGU1 240914Z 35003KT 17/05 A3017 RMK A01 T01690047  RH  046%=      5-min Rain = 0
KGU1 240915Z 36003KT 17/05 A3017 RMK A01 T01680046  RH  045%=      5-min Rain = 0
KGU1 240916Z 03003KT 17/05 A3016 RMK A01 T01710047  RH  045%=      5-min Rain = 0
KGU1 240917Z 05002KT 17/05 A3016 RMK A01 T01730047  RH  044%=      5-min Rain = 0
KGU1 240918Z 04002KT 18/05 A3016 RMK A01 T01760049  RH  044%=      5-min Rain = 0
KGU1 240919Z 04001KT 18/05 A3016 RMK A01 T01790050  RH  044%=      5-min Rain = 0
KGU1 240920Z 02001KT 18/05 A3016 RMK A01 T01800050  RH  043%=      5-min Rain = 0
KGU1 240921Z 01001KT 18/05 A3016 RMK A01 T01810049  RH  043%=      5-min Rain = 0
KGU1 240922Z 02001KT 18/05 A3016 RMK A01 T01810049  RH  043%=      5-min Rain = 0
KGU1 240923Z 04002KT 18/05 A3016 RMK A01 T01810048  RH  042%=      5-min Rain = 0
KGU1 240924Z 04004KT 18/05 A3016 RMK A01 T01810049  RH  042%=      5-min Rain = 0
KGU1 240925Z 06004KT 18/05 A3016 RMK A01 T01810051  RH  043%=      5-min Rain = 0
KGU1 240926Z 05004KT 18/05 A3016 RMK A01 T01800052  RH  044%=      5-min Rain = 0
KGU1 240927Z 06004KT 18/05 A3016 RMK A01 T01780053  RH  045%=      5-min Rain = 0
KGU1 240928Z 06004KT 18/05 A3016 RMK A01 T01760053  RH  045%=      5-min Rain = 0
KGU1 240929Z 05004KT 17/05 A3016 RMK A01 T01740054  RH  046%=      5-min Rain = 0
KGU1 240930Z 04004KT 17/05 A3016 RMK A01 T01730054  RH  047%=      5-min Rain = 0
KGU1 240931Z 04003KT 17/06 A3016 RMK A01 T01710055  RH  047%=      5-min Rain = 0
KGU1 240932Z 03003KT 17/06 A3016 RMK A01 T01700055  RH  048%=      5-min Rain = 0
KGU1 240933Z 03004KT 17/06 A3016 RMK A01 T01700055  RH  048%=      5-min Rain = 0
KGU1 240934Z 03003KT 17/06 A3016 RMK A01 T01700055  RH  048%=      5-min Rain = 0
KGU1 240935Z 03003KT 17/05 A3016 RMK A01 T01700054  RH  047%=      5-min Rain = 0
KGU1 240936Z 01002KT 17/06 A3016 RMK A01 T01710055  RH  047%=      5-min Rain = 0
KGU1 240937Z 01003KT 17/05 A3016 RMK A01 T01710054  RH  047%=      5-min Rain = 0
KGU1 240938Z 36003KT 17/05 A3016 RMK A01 T01720054  RH  047%=      5-min Rain = 0
KGU1 240939Z 00003KT 17/05 A3016 RMK A01 T01720053  RH  046%=      5-min Rain = 0
KGU1 240940Z 35003KT 17/05 A3016 RMK A01 T01730053  RH  046%=      5-min Rain = 0
KGU1 240941Z 34003KT 17/05 A3016 RMK A01 T01740053  RH  046%=      5-min Rain = 0
KGU1 240942Z 33003KT 17/05 A3016 RMK A01 T01740052  RH  046%=      5-min Rain = 0
KGU1 240943Z 31003KT 18/05 A3016 RMK A01 T01750052  RH  045%=      5-min Rain = 0
KGU1 240944Z 31002KT 17/05 A3016 RMK A01 T01730051  RH  046%=      5-min Rain = 0
KGU1 240945Z 31001KT 17/05 A3016 RMK A01 T01700051  RH  046%=      5-min Rain = 0
KGU1 240946Z 35000KT 17/05 A3016 RMK A01 T01680051  RH  047%=      5-min Rain = 0
KGU1 240947Z 00000KT 17/05 A3016 RMK A01 T01680051  RH  047%=      5-min Rain = 0
KGU1 240948Z 00000KT 17/05 A3016 RMK A01 T01690050  RH  046%=      5-min Rain = 0
KGU1 240949Z 00000KT 17/05 A3016 RMK A01 T01700050  RH  046%=      5-min Rain = 0
KGU1 240950Z 00000KT 17/05 A3016 RMK A01 T01700050  RH  046%=      5-min Rain = 0
KGU1 240951Z 00000KT 17/05 A3016 RMK A01 T01710050  RH  046%=      5-min Rain = 0
KGU1 240952Z 00000KT 17/05 A3016 RMK A01 T01710050  RH  046%=      5-min Rain = 0
KGU1 240953Z 28000KT 17/05 A3016 RMK A01 T01720050  RH  046%=      5-min Rain = 0
KGU1 240954Z 29001KT 17/05 A3016 RMK A01 T01710049  RH  045%=      5-min Rain = 0
KGU1 240955Z 28002KT 17/05 A3016 RMK A01 T01680047  RH  046%=      5-min Rain = 0
KGU1 240956Z 29002KT 16/05 A3016 RMK A01 T01640046  RH  046%=      5-min Rain = 0
KGU1 240957Z 29001KT 16/05 A3016 RMK A01 T01610046  RH  047%=      5-min Rain = 0
KGU1 240958Z 29000KT 16/05 A3016 RMK A01 T01600045  RH  047%=      5-min Rain = 0
KGU1 240959Z 00000KT 16/05 A3016 RMK A01 T01590045  RH  047%=      5-min Rain = 0
KGU1 241000Z 00000KT 16/05 A3016 RMK A01 T01590045  RH  047%=      5-min Rain = 0
KGU1 241001Z 00000KT 16/05 A3016 RMK A01 T01600045  RH  047%=      5-min Rain = 0
KGU1 241002Z 00000KT 16/05 A3016 RMK A01 T01600045  RH  047%=      5-min Rain = 0
KGU1 241003Z 29000KT 16/05 A3016 RMK A01 T01610045  RH  047%=      5-min Rain = 0
KGU1 241004Z 29002KT 16/04 A3016 RMK A01 T01600044  RH  047%=      5-min Rain = 0
KGU1 241005Z 29003KT 16/04 A3016 RMK A01 T01570043  RH  047%=      5-min Rain = 0
KGU1 241006Z 29002KT 16/04 A3016 RMK A01 T01550043  RH  048%=      5-min Rain = 0
KGU1 241007Z 29001KT 16/04 A3016 RMK A01 T01550044  RH  048%=      5-min Rain = 0
KGU1 241008Z 29001KT 16/04 A3016 RMK A01 T01560044  RH  048%=      5-min Rain = 0
KGU1 241009Z 30002KT 16/04 A3016 RMK A01 T01570044  RH  048%=      5-min Rain = 0
KGU1 241010Z 30002KT 16/04 A3016 RMK A01 T01560044  RH  048%=      5-min Rain = 0
KGU1 241011Z 30002KT 16/04 A3016 RMK A01 T01560044  RH  048%=      5-min Rain = 0
KGU1 241012Z 31002KT 16/04 A3016 RMK A01 T01560044  RH  048%=      5-min Rain = 0
KGU1 241013Z 31002KT 16/04 A3016 RMK A01 T01560044  RH  048%=      5-min Rain = 0
KGU1 241014Z 31002KT 16/04 A3016 RMK A01 T01570044  RH  048%=      5-min Rain = 0
KGU1 241015Z 31002KT 16/04 A3016 RMK A01 T01580044  RH  048%=      5-min Rain = 0
KGU1 241016Z 31002KT 16/05 A3016 RMK A01 T01600045  RH  047%=      5-min Rain = 0
KGU1 241017Z 32002KT 16/04 A3016 RMK A01 T01610044  RH  047%=      5-min Rain = 0
KGU1 241018Z 31002KT 16/04 A3016 RMK A01 T01640044  RH  046%=      5-min Rain = 0
KGU1 241019Z 31002KT 17/04 A3016 RMK A01 T01670043  RH  045%=      5-min Rain = 0
KGU1 241020Z 30002KT 17/04 A3016 RMK A01 T01680043  RH  044%=      5-min Rain = 0
KGU1 241021Z 30003KT 17/04 A3016 RMK A01 T01680042  RH  044%=      5-min Rain = 0
KGU1 241022Z 30002KT 17/04 A3016 RMK A01 T01680042  RH  044%=      5-min Rain = 0
KGU1 241023Z 29002KT 17/04 A3016 RMK A01 T01670041  RH  044%=      5-min Rain = 0
KGU1 241024Z 29002KT 17/04 A3016 RMK A01 T01660041  RH  044%=      5-min Rain = 0
KGU1 241025Z 29003KT 16/04 A3016 RMK A01 T01640041  RH  045%=      5-min Rain = 0
KGU1 241026Z 29003KT 16/04 A3016 RMK A01 T01610041  RH  046%=      5-min Rain = 0
KGU1 241027Z 29002KT 16/04 A3015 RMK A01 T01600041  RH  046%=      5-min Rain = 0
KGU1 241028Z 29002KT 16/04 A3015 RMK A01 T01580041  RH  047%=      5-min Rain = 0
KGU1 241029Z 29003KT 16/04 A3015 RMK A01 T01580041  RH  047%=      5-min Rain = 0
KGU1 241030Z 29004KT 16/04 A3015 RMK A01 T01570040  RH  047%=      5-min Rain = 0
KGU1 241031Z 29004KT 16/04 A3015 RMK A01 T01560040  RH  047%=      5-min Rain = 0
KGU1 241032Z 29003KT 16/04 A3015 RMK A01 T01550040  RH  047%=      5-min Rain = 0
KGU1 241033Z 29002KT 15/04 A3015 RMK A01 T01540040  RH  047%=      5-min Rain = 0
KGU1 241034Z 29002KT 15/04 A3015 RMK A01 T01540041  RH  048%=      5-min Rain = 0
KGU1 241035Z 29002KT 15/04 A3015 RMK A01 T01540042  RH  048%=      5-min Rain = 0
KGU1 241036Z 30003KT 15/04 A3015 RMK A01 T01540042  RH  048%=      5-min Rain = 0
KGU1 241037Z 30004KT 15/04 A3015 RMK A01 T01540042  RH  048%=      5-min Rain = 0
KGU1 241038Z 30004KT 15/04 A3015 RMK A01 T01520042  RH  049%=      5-min Rain = 0
KGU1 241039Z 30003KT 15/04 A3015 RMK A01 T01510043  RH  049%=      5-min Rain = 0
KGU1 241040Z 30003KT 15/04 A3015 RMK A01 T01510043  RH  049%=      5-min Rain = 0
KGU1 241041Z 30004KT 15/04 A3015 RMK A01 T01520043  RH  049%=      5-min Rain = 0
KGU1 241042Z 30003KT 15/04 A3015 RMK A01 T01520042  RH  049%=      5-min Rain = 0
KGU1 241043Z 29003KT 15/04 A3015 RMK A01 T01520041  RH  048%=      5-min Rain = 0
KGU1 241044Z 30002KT 15/04 A3015 RMK A01 T01520040  RH  048%=      5-min Rain = 0
KGU1 241045Z 29002KT 16/04 A3015 RMK A01 T01550040  RH  047%=      5-min Rain = 0
KGU1 241046Z 30003KT 16/04 A3015 RMK A01 T01580040  RH  046%=      5-min Rain = 0
KGU1 241047Z 30003KT 16/04 A3015 RMK A01 T01590041  RH  046%=      5-min Rain = 0
KGU1 241048Z 30003KT 16/04 A3015 RMK A01 T01590040  RH  046%=      5-min Rain = 0
KGU1 241049Z 30004KT 16/04 A3015 RMK A01 T01580041  RH  047%=      5-min Rain = 0
KGU1 241050Z 30005KT 16/04 A3015 RMK A01 T01560042  RH  047%=      5-min Rain = 0
KGU1 241051Z 31004KT 16/04 A3015 RMK A01 T01580044  RH  048%=      5-min Rain = 0
KGU1 241052Z 31003KT 16/05 A3015 RMK A01 T01610046  RH  047%=      5-min Rain = 0
KGU1 241053Z 31003KT 16/05 A3015 RMK A01 T01610046  RH  047%=      5-min Rain = 0
KGU1 241054Z 30003KT 16/05 A3015 RMK A01 T01600047  RH  048%=      5-min Rain = 0
KGU1 241055Z 30004KT 16/05 A3015 RMK A01 T01600045  RH  047%=      5-min Rain = 0
KGU1 241056Z 30003KT 16/04 A3015 RMK A01 T01590043  RH  047%=      5-min Rain = 0
KGU1 241057Z 30003KT 16/04 A3015 RMK A01 T01590043  RH  047%=      5-min Rain = 0
KGU1 241058Z 31002KT 16/05 A3015 RMK A01 T01610046  RH  047%=      5-min Rain = 0
KGU1 241059Z 31002KT 17/05 A3015 RMK A01 T01650051  RH  048%=      5-min Rain = 0
KGU1 241100Z 31002KT 17/05 A3015 RMK A01 T01700050  RH  046%=      5-min Rain = 0
KGU1 241101Z 32001KT 17/05 A3015 RMK A01 T01690045  RH  045%=      5-min Rain = 0
KGU1 241102Z 30004KT 17/04 A3015 RMK A01 T01650042  RH  045%=      5-min Rain = 0
KGU1 241103Z 31005KT 16/04 A3015 RMK A01 T01620042  RH  046%=      5-min Rain = 0
KGU1 241104Z 31004KT 16/04 A3015 RMK A01 T01590044  RH  047%=      5-min Rain = 0
KGU1 241105Z 31003KT 16/05 A3015 RMK A01 T01570045  RH  048%=      5-min Rain = 0
KGU1 241106Z 29003KT 16/04 A3015 RMK A01 T01570044  RH  048%=      5-min Rain = 0
KGU1 241107Z 28003KT 16/04 A3015 RMK A01 T01570043  RH  048%=      5-min Rain = 0
KGU1 241108Z 28003KT 16/04 A3015 RMK A01 T01590044  RH  047%=      5-min Rain = 0
KGU1 241109Z 28003KT 16/04 A3015 RMK A01 T01620044  RH  047%=      5-min Rain = 0
KGU1 241110Z 29002KT 17/05 A3015 RMK A01 T01650046  RH  046%=      5-min Rain = 0
KGU1 241111Z 30001KT 17/05 A3015 RMK A01 T01690048  RH  046%=      5-min Rain = 0
KGU1 241112Z 30000KT 17/05 A3015 RMK A01 T01710045  RH  044%=      5-min Rain = 0
KGU1 241113Z 30000KT 17/04 A3015 RMK A01 T01710044  RH  044%=      5-min Rain = 0
KGU1 241114Z 00000KT 17/05 A3015 RMK A01 T01720045  RH  044%=      5-min Rain = 0
KGU1 241115Z 08000KT 17/05 A3015 RMK A01 T01720048  RH  045%=      5-min Rain = 0
KGU1 241116Z 09002KT 18/06 A3015 RMK A01 T01760057  RH  047%=      5-min Rain = 0
KGU1 241117Z 09002KT 18/06 A3015 RMK A01 T01810055  RH  045%=      5-min Rain = 0
KGU1 241118Z 10002KT 18/06 A3015 RMK A01 T01840055  RH  044%=      5-min Rain = 0
KGU1 241119Z 10002KT 19/06 A3016 RMK A01 T01860056  RH  043%=      5-min Rain = 0
KGU1 241120Z 10002KT 19/05 A3016 RMK A01 T01870054  RH  043%=      5-min Rain = 0
KGU1 241121Z 10002KT 19/06 A3016 RMK A01 T01870055  RH  043%=      5-min Rain = 0
KGU1 241122Z 08001KT 19/06 A3016 RMK A01 T01870056  RH  043%=      5-min Rain = 0
KGU1 241123Z 07001KT 19/06 A3016 RMK A01 T01880056  RH  043%=      5-min Rain = 0
KGU1 241124Z 06001KT 19/06 A3016 RMK A01 T01890055  RH  042%=      5-min Rain = 0
KGU1 241125Z 05001KT 19/05 A3016 RMK A01 T01900053  RH  042%=      5-min Rain = 0
KGU1 241126Z 05002KT 19/05 A3016 RMK A01 T01900052  RH  041%=      5-min Rain = 0
KGU1 241127Z 04002KT 19/05 A3016 RMK A01 T01890051  RH  041%=      5-min Rain = 0
KGU1 241128Z 02002KT 19/05 A3016 RMK A01 T01870048  RH  041%=      5-min Rain = 0
KGU1 241129Z 01002KT 18/05 A3016 RMK A01 T01810045  RH  041%=      5-min Rain = 0
KGU1 241130Z 01003KT 18/05 A3016 RMK A01 T01770046  RH  043%=      5-min Rain = 0
KGU1 241131Z 36004KT 18/05 A3016 RMK A01 T01760048  RH  044%=      5-min Rain = 0
KGU1 241132Z 01004KT 17/05 A3016 RMK A01 T01740050  RH  045%=      5-min Rain = 0
KGU1 241133Z 00004KT 17/05 A3016 RMK A01 T01730052  RH  046%=      5-min Rain = 0
KGU1 241134Z 02004KT 17/05 A3016 RMK A01 T01710053  RH  047%=      5-min Rain = 0
KGU1 241135Z 35004KT 17/06 A3016 RMK A01 T01700055  RH  048%=      5-min Rain = 0
KGU1 241136Z 36005KT 17/06 A3016 RMK A01 T01680056  RH  048%=      5-min Rain = 0
KGU1 241137Z 01005KT 17/06 A3016 RMK A01 T01680057  RH  049%=      5-min Rain = 0
KGU1 241138Z 01004KT 17/06 A3016 RMK A01 T01680057  RH  049%=      5-min Rain = 0
KGU1 241139Z 01004KT 17/06 A3016 RMK A01 T01700058  RH  049%=      5-min Rain = 0
KGU1 241140Z 02004KT 17/06 A3016 RMK A01 T01710058  RH  049%=      5-min Rain = 0
KGU1 241141Z 03004KT 17/06 A3016 RMK A01 T01720059  RH  048%=      5-min Rain = 0
KGU1 241142Z 03004KT 17/06 A3016 RMK A01 T01740059  RH  048%=      5-min Rain = 0
KGU1 241143Z 03004KT 18/06 A3016 RMK A01 T01760059  RH  047%=      5-min Rain = 0
KGU1 241144Z 04004KT 18/06 A3016 RMK A01 T01780059  RH  047%=      5-min Rain = 0
KGU1 241145Z 05004KT 18/06 A3016 RMK A01 T01790059  RH  046%=      5-min Rain = 0
KGU1 241146Z 05003KT 18/06 A3016 RMK A01 T01800058  RH  046%=      5-min Rain = 0
KGU1 241147Z 04002KT 18/06 A3016 RMK A01 T01800058  RH  046%=      5-min Rain = 0
KGU1 241148Z 01002KT 18/06 A3016 RMK A01 T01800058  RH  046%=      5-min Rain = 0
KGU1 241149Z 36002KT 18/06 A3016 RMK A01 T01800058  RH  046%=      5-min Rain = 0
KGU1 241150Z 02003KT 18/06 A3016 RMK A01 T01790058  RH  046%=      5-min Rain = 0
KGU1 241151Z 01003KT 18/06 A3016 RMK A01 T01790058  RH  046%=      5-min Rain = 0
KGU1 241152Z 01003KT 18/06 A3016 RMK A01 T01770058  RH  046%=      5-min Rain = 0
KGU1 241153Z 01003KT 18/06 A3016 RMK A01 T01760058  RH  047%=      5-min Rain = 0
KGU1 241154Z 01002KT 17/06 A3016 RMK A01 T01740058  RH  047%=      5-min Rain = 0
KGU1 241155Z 01002KT 17/06 A3016 RMK A01 T01720057  RH  048%=      5-min Rain = 0
KGU1 241156Z 02003KT 17/06 A3017 RMK A01 T01710057  RH  048%=      5-min Rain = 0
KGU1 241157Z 01003KT 17/06 A3017 RMK A01 T01700057  RH  048%=      5-min Rain = 0
KGU1 241158Z 01003KT 17/06 A3017 RMK A01 T01700056  RH  048%=      5-min Rain = 0
KGU1 241159Z 36003KT 17/06 A3017 RMK A01 T01710056  RH  048%=      5-min Rain = 0
KGU1 241200Z 01003KT 17/06 A3017 RMK A01 T01710056  RH  048%=      5-min Rain = 0
KGU1 241201Z 01003KT 17/06 A3017 RMK A01 T01710056  RH  048%=      5-min Rain = 0
KGU1 241202Z 01003KT 17/06 A3017 RMK A01 T01710056  RH  048%=      5-min Rain = 0
KGU1 241203Z 00003KT 17/06 A3017 RMK A01 T01710055  RH  047%=      5-min Rain = 0
KGU1 241204Z 36003KT 17/06 A3017 RMK A01 T01710055  RH  047%=      5-min Rain = 0
KGU1 241205Z 36003KT 17/06 A3017 RMK A01 T01720055  RH  047%=      5-min Rain = 0
KGU1 241206Z 35003KT 17/06 A3017 RMK A01 T01720055  RH  047%=      5-min Rain = 0
KGU1 241207Z 34003KT 17/05 A3017 RMK A01 T01720054  RH  047%=      5-min Rain = 0
KGU1 241208Z 32002KT 17/05 A3017 RMK A01 T01730054  RH  046%=      5-min Rain = 0
KGU1 241209Z 31002KT 17/05 A3017 RMK A01 T01710054  RH  047%=      5-min Rain = 0
KGU1 241210Z 30002KT 17/05 A3017 RMK A01 T01680053  RH  048%=      5-min Rain = 0
KGU1 241211Z 30002KT 17/05 A3017 RMK A01 T01670053  RH  048%=      5-min Rain = 0
KGU1 241212Z 30003KT 17/05 A3017 RMK A01 T01660053  RH  048%=      5-min Rain = 0
KGU1 241213Z 29003KT 16/05 A3017 RMK A01 T01640053  RH  049%=      5-min Rain = 0
KGU1 241214Z 28003KT 16/05 A3017 RMK A01 T01600053  RH  050%=      5-min Rain = 0
KGU1 241215Z 28003KT 16/05 A3017 RMK A01 T01590053  RH  051%=      5-min Rain = 0
KGU1 241216Z 28003KT 16/05 A3017 RMK A01 T01590053  RH  050%=      5-min Rain = 0
KGU1 241217Z 28003KT 16/05 A3017 RMK A01 T01590052  RH  050%=      5-min Rain = 0
KGU1 241218Z 28003KT 16/05 A3017 RMK A01 T01570052  RH  051%=      5-min Rain = 0
KGU1 241219Z 28003KT 16/05 A3017 RMK A01 T01550052  RH  052%=      5-min Rain = 0
KGU1 241220Z 29002KT 15/05 A3017 RMK A01 T01530052  RH  052%=      5-min Rain = 0
KGU1 241221Z 31002KT 15/05 A3017 RMK A01 T01520053  RH  053%=      5-min Rain = 0
KGU1 241222Z 32002KT 15/05 A3017 RMK A01 T01520052  RH  052%=      5-min Rain = 0
KGU1 241223Z 32002KT 15/05 A3017 RMK A01 T01530052  RH  052%=      5-min Rain = 0
KGU1 241224Z 32002KT 15/05 A3018 RMK A01 T01510052  RH  052%=      5-min Rain = 0
KGU1 241225Z 32002KT 15/05 A3018 RMK A01 T01500052  RH  053%=      5-min Rain = 0
KGU1 241226Z 32002KT 15/05 A3018 RMK A01 T01500051  RH  053%=      5-min Rain = 0
KGU1 241227Z 31004KT 15/05 A3018 RMK A01 T01490050  RH  053%=      5-min Rain = 0
KGU1 241228Z 32003KT 15/05 A3018 RMK A01 T01480050  RH  053%=      5-min Rain = 0
KGU1 241229Z 33003KT 15/05 A3018 RMK A01 T01500049  RH  052%=      5-min Rain = 0
KGU1 241230Z 34003KT 15/05 A3018 RMK A01 T01500048  RH  051%=      5-min Rain = 0
KGU1 241231Z 34003KT 15/05 A3018 RMK A01 T01500046  RH  051%=      5-min Rain = 0
KGU1 241232Z 35002KT 15/05 A3018 RMK A01 T01500046  RH  051%=      5-min Rain = 0
KGU1 241233Z 02002KT 15/05 A3018 RMK A01 T01500046  RH  051%=      5-min Rain = 0
KGU1 241234Z 01002KT 15/05 A3018 RMK A01 T01520046  RH  050%=      5-min Rain = 0
KGU1 241235Z 00002KT 15/05 A3018 RMK A01 T01540046  RH  049%=      5-min Rain = 0
KGU1 241236Z 35001KT 16/05 A3018 RMK A01 T01550046  RH  049%=      5-min Rain = 0
KGU1 241237Z 35001KT 16/05 A3018 RMK A01 T01550047  RH  049%=      5-min Rain = 0
KGU1 241238Z 00001KT 16/05 A3018 RMK A01 T01550046  RH  049%=      5-min Rain = 0
KGU1 241239Z 00001KT 16/05 A3018 RMK A01 T01560047  RH  049%=      5-min Rain = 0
KGU1 241240Z 34002KT 16/05 A3018 RMK A01 T01570049  RH  050%=      5-min Rain = 0
KGU1 241241Z 31002KT 16/05 A3018 RMK A01 T01560048  RH  050%=      5-min Rain = 0
KGU1 241242Z 31003KT 15/05 A3018 RMK A01 T01540047  RH  050%=      5-min Rain = 0
KGU1 241243Z 31002KT 15/05 A3018 RMK A01 T01520048  RH  051%=      5-min Rain = 0
KGU1 241244Z 30002KT 15/05 A3018 RMK A01 T01510047  RH  051%=      5-min Rain = 0
KGU1 241245Z 30003KT 15/05 A3018 RMK A01 T01500048  RH  051%=      5-min Rain = 0
KGU1 241246Z 30003KT 15/05 A3018 RMK A01 T01490048  RH  052%=      5-min Rain = 0
KGU1 241247Z 30003KT 15/05 A3018 RMK A01 T01490048  RH  052%=      5-min Rain = 0
KGU1 241248Z 30003KT 15/05 A3018 RMK A01 T01490048  RH  052%=      5-min Rain = 0
KGU1 241249Z 30003KT 15/05 A3018 RMK A01 T01510050  RH  052%=      5-min Rain = 0
KGU1 241250Z 31002KT 15/05 A3018 RMK A01 T01530050  RH  051%=      5-min Rain = 0
KGU1 241251Z 29002KT 16/05 A3018 RMK A01 T01550050  RH  051%=      5-min Rain = 0
KGU1 241252Z 30002KT 16/05 A3018 RMK A01 T01570051  RH  050%=      5-min Rain = 0
KGU1 241253Z 30001KT 16/05 A3018 RMK A01 T01580050  RH  050%=      5-min Rain = 0
KGU1 241254Z 30001KT 16/05 A3018 RMK A01 T01580050  RH  050%=      5-min Rain = 0
KGU1 241255Z 31002KT 16/05 A3018 RMK A01 T01580050  RH  050%=      5-min Rain = 0
KGU1 241256Z 32001KT 16/05 A3018 RMK A01 T01580050  RH  050%=      5-min Rain = 0
KGU1 241257Z 32001KT 16/05 A3018 RMK A01 T01590051  RH  050%=      5-min Rain = 0
KGU1 241258Z 33001KT 16/05 A3018 RMK A01 T01600051  RH  049%=      5-min Rain = 0
KGU1 241259Z 31001KT 16/05 A3018 RMK A01 T01620051  RH  049%=      5-min Rain = 0
KGU1 241300Z 32002KT 16/05 A3018 RMK A01 T01610050  RH  049%=      5-min Rain = 0
KGU1 241301Z 32001KT 16/05 A3018 RMK A01 T01590050  RH  049%=      5-min Rain = 0
KGU1 241302Z 35002KT 16/05 A3019 RMK A01 T01580050  RH  050%=      5-min Rain = 0
KGU1 241303Z 02002KT 16/05 A3019 RMK A01 T01590051  RH  050%=      5-min Rain = 0
KGU1 241304Z 02002KT 16/05 A3019 RMK A01 T01630052  RH  049%=      5-min Rain = 0
KGU1 241305Z 01003KT 17/05 A3019 RMK A01 T01660052  RH  048%=      5-min Rain = 0
KGU1 241306Z 02003KT 17/05 A3019 RMK A01 T01680053  RH  047%=      5-min Rain = 0
KGU1 241307Z 00003KT 17/05 A3019 RMK A01 T01690052  RH  047%=      5-min Rain = 0
KGU1 241308Z 36003KT 17/05 A3019 RMK A01 T01700053  RH  047%=      5-min Rain = 0
KGU1 241309Z 35003KT 17/05 A3019 RMK A01 T01690052  RH  047%=      5-min Rain = 0
KGU1 241310Z 33003KT 17/05 A3019 RMK A01 T01680053  RH  048%=      5-min Rain = 0
KGU1 241311Z 33003KT 17/05 A3019 RMK A01 T01650053  RH  048%=      5-min Rain = 0
KGU1 241312Z 33003KT 16/05 A3019 RMK A01 T01630053  RH  049%=      5-min Rain = 0
KGU1 241313Z 33003KT 16/05 A3019 RMK A01 T01620054  RH  050%=      5-min Rain = 0
KGU1 241314Z 33003KT 16/05 A3019 RMK A01 T01620054  RH  050%=      5-min Rain = 0
KGU1 241315Z 33003KT 16/06 A3019 RMK A01 T01630055  RH  050%=      5-min Rain = 0
KGU1 241316Z 32003KT 16/06 A3019 RMK A01 T01640055  RH  050%=      5-min Rain = 0
KGU1 241317Z 31003KT 16/06 A3019 RMK A01 T01640055  RH  050%=      5-min Rain = 0
KGU1 241318Z 31003KT 16/06 A3019 RMK A01 T01640055  RH  050%=      5-min Rain = 0
KGU1 241319Z 31003KT 16/05 A3019 RMK A01 T01640054  RH  049%=      5-min Rain = 0
KGU1 241320Z 30003KT 16/05 A3019 RMK A01 T01630054  RH  049%=      5-min Rain = 0
KGU1 241321Z 31004KT 16/05 A3019 RMK A01 T01640054  RH  049%=      5-min Rain = 0
KGU1 241322Z 32003KT 17/05 A3019 RMK A01 T01650054  RH  049%=      5-min Rain = 0
KGU1 241323Z 33002KT 17/06 A3019 RMK A01 T01660055  RH  049%=      5-min Rain = 0
KGU1 241324Z 31002KT 17/06 A302 RMK A01 T01690055  RH  048%=      5-min Rain = 0
KGU1 241325Z 30002KT 17/06 A302 RMK A01 T01710055  RH  047%=      5-min Rain = 0
KGU1 241326Z 32002KT 17/06 A302 RMK A01 T01720056  RH  047%=      5-min Rain = 0
KGU1 241327Z 34003KT 17/06 A3019 RMK A01 T01740055  RH  047%=      5-min Rain = 0
KGU1 241328Z 32003KT 18/06 A3019 RMK A01 T01760056  RH  046%=      5-min Rain = 0
KGU1 241329Z 32003KT 18/06 A3019 RMK A01 T01750056  RH  046%=      5-min Rain = 0
KGU1 241330Z 32003KT 17/06 A3019 RMK A01 T01740058  RH  047%=      5-min Rain = 0
KGU1 241331Z 32002KT 18/06 A3019 RMK A01 T01750059  RH  048%=      5-min Rain = 0
KGU1 241332Z 34002KT 18/06 A302 RMK A01 T01770059  RH  047%=      5-min Rain = 0
KGU1 241333Z 33003KT 18/06 A302 RMK A01 T01790059  RH  046%=      5-min Rain = 0
KGU1 241334Z 34003KT 18/06 A302 RMK A01 T01810059  RH  046%=      5-min Rain = 0
KGU1 241335Z 34003KT 18/06 A302 RMK A01 T01820059  RH  046%=      5-min Rain = 0
KGU1 241336Z 35003KT 18/06 A302 RMK A01 T01830061  RH  046%=      5-min Rain = 0
KGU1 241337Z 36002KT 19/06 A302 RMK A01 T01850057  RH  044%=      5-min Rain = 0
KGU1 241338Z 35002KT 19/06 A302 RMK A01 T01880058  RH  043%=      5-min Rain = 0
KGU1 241339Z 01002KT 19/06 A302 RMK A01 T01900058  RH  043%=      5-min Rain = 0
KGU1 241340Z 02002KT 19/06 A3019 RMK A01 T01920059  RH  043%=      5-min Rain = 0
KGU1 241341Z 03002KT 20/06 A3019 RMK A01 T01950059  RH  042%=      5-min Rain = 0
KGU1 241342Z 03003KT 20/06 A302 RMK A01 T01970059  RH  042%=      5-min Rain = 0
KGU1 241343Z 02003KT 20/06 A302 RMK A01 T01980060  RH  041%=      5-min Rain = 0
KGU1 241344Z 02003KT 20/06 A302 RMK A01 T01990062  RH  042%=      5-min Rain = 0
KGU1 241345Z 02004KT 20/06 A302 RMK A01 T02000063  RH  042%=      5-min Rain = 0
KGU1 241346Z 02003KT 20/06 A302 RMK A01 T02010064  RH  042%=      5-min Rain = 0
KGU1 241347Z 02002KT 20/07 A302 RMK A01 T02020065  RH  042%=      5-min Rain = 0
KGU1 241348Z 02002KT 20/07 A302 RMK A01 T02020066  RH  042%=      5-min Rain = 0
KGU1 241349Z 02003KT 20/07 A302 RMK A01 T02030068  RH  043%=      5-min Rain = 0
KGU1 241350Z 02003KT 20/07 A302 RMK A01 T02040070  RH  043%=      5-min Rain = 0
KGU1 241351Z 02002KT 20/07 A302 RMK A01 T02040071  RH  043%=      5-min Rain = 0
KGU1 241352Z 02003KT 21/07 A302 RMK A01 T02050073  RH  043%=      5-min Rain = 0
KGU1 241353Z 02003KT 21/07 A302 RMK A01 T02050074  RH  044%=      5-min Rain = 0
KGU1 241354Z 02003KT 21/08 A302 RMK A01 T02060075  RH  044%=      5-min Rain = 0
KGU1 241355Z 03003KT 21/08 A302 RMK A01 T02060076  RH  044%=      5-min Rain = 0
KGU1 241356Z 04004KT 21/08 A302 RMK A01 T02070077  RH  044%=      5-min Rain = 0
KGU1 241357Z 04004KT 21/08 A302 RMK A01 T02070077  RH  044%=      5-min Rain = 0
KGU1 241358Z 04003KT 21/08 A302 RMK A01 T02070078  RH  045%=      5-min Rain = 0
KGU1 241359Z 04003KT 21/08 A302 RMK A01 T02080079  RH  045%=      5-min Rain = 0
KGU1 241400Z 05002KT 21/08 A302 RMK A01 T02080080  RH  045%=      5-min Rain = 0
KGU1 241401Z 05003KT 21/08 A302 RMK A01 T02090081  RH  045%=      5-min Rain = 0
KGU1 241402Z 04003KT 21/08 A302 RMK A01 T02100081  RH  045%=      5-min Rain = 0
KGU1 241403Z 04003KT 21/08 A302 RMK A01 T02100080  RH  044%=      5-min Rain = 0
KGU1 241404Z 05004KT 21/08 A302 RMK A01 T02100080  RH  044%=      5-min Rain = 0
KGU1 241405Z 05003KT 21/08 A302 RMK A01 T02110080  RH  044%=      5-min Rain = 0
KGU1 241406Z 06004KT 21/08 A302 RMK A01 T02100081  RH  044%=      5-min Rain = 0
KGU1 241407Z 07004KT 21/08 A302 RMK A01 T02100081  RH  044%=      5-min Rain = 0
KGU1 241408Z 07004KT 21/08 A302 RMK A01 T02110082  RH  045%=      5-min Rain = 0
KGU1 241409Z 06004KT 21/08 A302 RMK A01 T02120082  RH  044%=      5-min Rain = 0
KGU1 241410Z 07003KT 21/08 A302 RMK A01 T02120082  RH  045%=      5-min Rain = 0
KGU1 241411Z 06003KT 21/08 A302 RMK A01 T02120083  RH  045%=      5-min Rain = 0
KGU1 241412Z 07003KT 21/08 A302 RMK A01 T02120082  RH  044%=      5-min Rain = 0
KGU1 241413Z 07003KT 21/08 A302 RMK A01 T02130084  RH  045%=      5-min Rain = 0
KGU1 241414Z 06004KT 21/08 A302 RMK A01 T02130082  RH  044%=      5-min Rain = 0
KGU1 241415Z 07003KT 21/08 A302 RMK A01 T02130083  RH  044%=      5-min Rain = 0
KGU1 241416Z 07003KT 21/08 A3021 RMK A01 T02130083  RH  044%=      5-min Rain = 0
KGU1 241417Z 06004KT 21/08 A3021 RMK A01 T02140083  RH  044%=      5-min Rain = 0
KGU1 241418Z 08004KT 21/08 A3021 RMK A01 T02130083  RH  044%=      5-min Rain = 0
KGU1 241419Z 06004KT 21/08 A3021 RMK A01 T02140083  RH  044%=      5-min Rain = 0
KGU1 241420Z 06004KT 21/08 A3021 RMK A01 T02140082  RH  044%=      5-min Rain = 0
KGU1 241421Z 06004KT 21/08 A3021 RMK A01 T02140080  RH  043%=      5-min Rain = 0
KGU1 241422Z 07003KT 21/08 A3021 RMK A01 T02140083  RH  044%=      5-min Rain = 0
KGU1 241423Z 08002KT 21/08 A3021 RMK A01 T02140082  RH  044%=      5-min Rain = 0
KGU1 241424Z 07002KT 22/08 A3021 RMK A01 T02160082  RH  044%=      5-min Rain = 0
KGU1 241425Z 09003KT 22/08 A3021 RMK A01 T02170083  RH  044%=      5-min Rain = 0
KGU1 241426Z 09003KT 22/08 A3021 RMK A01 T02170083  RH  043%=      5-min Rain = 0
KGU1 241427Z 09004KT 22/08 A3021 RMK A01 T02180082  RH  043%=      5-min Rain = 0
KGU1 241428Z 09005KT 22/08 A3021 RMK A01 T02160080  RH  043%=      5-min Rain = 0
KGU1 241429Z 08004KT 22/08 A3021 RMK A01 T02150080  RH  043%=      5-min Rain = 0
KGU1 241430Z 06004KT 22/08 A3021 RMK A01 T02160079  RH  042%=      5-min Rain = 0
KGU1 241431Z 09003KT 22/08 A3021 RMK A01 T02150080  RH  043%=      5-min Rain = 0
KGU1 241432Z 06003KT 22/08 A3021 RMK A01 T02160079  RH  042%=      5-min Rain = 0
KGU1 241433Z 06004KT 22/08 A3021 RMK A01 T02170079  RH  042%=      5-min Rain = 0
KGU1 241434Z 07004KT 22/08 A3021 RMK A01 T02160080  RH  043%=      5-min Rain = 0
KGU1 241435Z 07004KT 22/08 A3021 RMK A01 T02170080  RH  042%=      5-min Rain = 0
KGU1 241436Z 08002KT 22/08 A3021 RMK A01 T02170078  RH  042%=      5-min Rain = 0
KGU1 241437Z 08003KT 22/08 A3021 RMK A01 T02180077  RH  041%=      5-min Rain = 0
KGU1 241438Z 08004KT 22/08 A3021 RMK A01 T02170078  RH  042%=      5-min Rain = 0
KGU1 241439Z 06002KT 22/08 A3022 RMK A01 T02170080  RH  042%=      5-min Rain = 0
KGU1 241440Z 07004KT 22/08 A3022 RMK A01 T02180079  RH  042%=      5-min Rain = 0
KGU1 241441Z 06004KT 22/08 A3022 RMK A01 T02170075  RH  041%=      5-min Rain = 0
KGU1 241442Z 06003KT 22/08 A3022 RMK A01 T02160075  RH  041%=      5-min Rain = 0
KGU1 241443Z 08003KT 22/08 A3022 RMK A01 T02170076  RH  041%=      5-min Rain = 0
KGU1 241444Z 08004KT 22/08 A3022 RMK A01 T02170075  RH  041%=      5-min Rain = 0
KGU1 241445Z 07003KT 22/08 A3022 RMK A01 T02170076  RH  041%=      5-min Rain = 0
KGU1 241446Z 08003KT 22/08 A3022 RMK A01 T02180077  RH  041%=      5-min Rain = 0
KGU1 241447Z 07003KT 22/08 A3022 RMK A01 T02190077  RH  041%=      5-min Rain = 0
KGU1 241448Z 08003KT 22/08 A3022 RMK A01 T02200075  RH  040%=      5-min Rain = 0
KGU1 241449Z 11003KT 22/08 A3022 RMK A01 T02200075  RH  040%=      5-min Rain = 0
KGU1 241450Z 09004KT 22/07 A3022 RMK A01 T02210074  RH  040%=      5-min Rain = 0
KGU1 241451Z 10002KT 22/07 A3022 RMK A01 T02210074  RH  040%=      5-min Rain = 0
KGU1 241452Z 11003KT 22/08 A3022 RMK A01 T02210075  RH  040%=      5-min Rain = 0
KGU1 241453Z 11003KT 22/08 A3022 RMK A01 T02210075  RH  040%=      5-min Rain = 0
KGU1 241454Z 11002KT 22/08 A3022 RMK A01 T02210075  RH  040%=      5-min Rain = 0
KGU1 241455Z 09003KT 22/08 A3022 RMK A01 T02220076  RH  040%=      5-min Rain = 0
KGU1 241456Z 10003KT 22/08 A3022 RMK A01 T02220075  RH  040%=      5-min Rain = 0
KGU1 241457Z 10003KT 22/08 A3022 RMK A01 T02220077  RH  040%=      5-min Rain = 0
KGU1 241458Z 10003KT 22/08 A3022 RMK A01 T02230077  RH  040%=      5-min Rain = 0
KGU1 241459Z 09003KT 22/08 A3022 RMK A01 T02240075  RH  039%=      5-min Rain = 0
KGU1 241500Z 09003KT 22/08 A3022 RMK A01 T02230075  RH  039%=      5-min Rain = 0
KGU1 241501Z 08002KT 22/08 A3022 RMK A01 T02220076  RH  040%=      5-min Rain = 0
KGU1 241502Z 08003KT 22/08 A3022 RMK A01 T02230076  RH  040%=      5-min Rain = 0
KGU1 241503Z 06003KT 22/08 A3022 RMK A01 T02230076  RH  040%=      5-min Rain = 0
KGU1 241504Z 08003KT 22/08 A3022 RMK A01 T02230076  RH  040%=      5-min Rain = 0
KGU1 241505Z 05003KT 22/08 A3022 RMK A01 T02230077  RH  040%=      5-min Rain = 0
KGU1 241506Z 07003KT 22/08 A3022 RMK A01 T02230077  RH  040%=      5-min Rain = 0
KGU1 241507Z 06003KT 22/08 A3022 RMK A01 T02230078  RH  040%=      5-min Rain = 0
KGU1 241508Z 08004KT 22/08 A3022 RMK A01 T02240079  RH  040%=      5-min Rain = 0
KGU1 241509Z 10004KT 22/08 A3022 RMK A01 T02230080  RH  041%=      5-min Rain = 0
KGU1 241510Z 09003KT 22/08 A3022 RMK A01 T02230080  RH  041%=      5-min Rain = 0
KGU1 241511Z 09002KT 22/08 A3022 RMK A01 T02230080  RH  041%=      5-min Rain = 0
KGU1 241512Z 12004KT 22/08 A3022 RMK A01 T02240080  RH  041%=      5-min Rain = 0
KGU1 241513Z 12004KT 22/08 A3022 RMK A01 T02240080  RH  041%=      5-min Rain = 0
KGU1 241514Z 09003KT 22/08 A3022 RMK A01 T02240080  RH  041%=      5-min Rain = 0
KGU1 241515Z 09003KT 22/08 A3022 RMK A01 T02240080  RH  041%=      5-min Rain = 0
KGU1 241516Z 08004KT 22/08 A3022 RMK A01 T02240081  RH  041%=      5-min Rain = 0
KGU1 241517Z 07001KT 22/08 A3022 RMK A01 T02230078  RH  040%=      5-min Rain = 0
KGU1 241518Z 09003KT 22/08 A3023 RMK A01 T02240081  RH  041%=      5-min Rain = 0
KGU1 241519Z 08004KT 23/08 A3023 RMK A01 T02250083  RH  041%=      5-min Rain = 0
KGU1 241520Z 11004KT 23/08 A3023 RMK A01 T02260083  RH  041%=      5-min Rain = 0
KGU1 241521Z 12004KT 23/08 A3023 RMK A01 T02250081  RH  041%=      5-min Rain = 0
KGU1 241522Z 12004KT 23/08 A3023 RMK A01 T02250083  RH  041%=      5-min Rain = 0
KGU1 241523Z 11004KT 23/08 A3023 RMK A01 T02260082  RH  041%=      5-min Rain = 0
KGU1 241524Z 11003KT 23/08 A3023 RMK A01 T02260082  RH  041%=      5-min Rain = 0
KGU1 241525Z 10003KT 23/08 A3023 RMK A01 T02270081  RH  040%=      5-min Rain = 0
KGU1 241526Z 10004KT 23/08 A3023 RMK A01 T02280081  RH  040%=      5-min Rain = 0
KGU1 241527Z 11004KT 23/08 A3023 RMK A01 T02270082  RH  041%=      5-min Rain = 0
KGU1 241528Z 12003KT 23/08 A3023 RMK A01 T02270080  RH  040%=      5-min Rain = 0
KGU1 241529Z 12003KT 23/08 A3023 RMK A01 T02260080  RH  040%=      5-min Rain = 0
KGU1 241530Z 09004KT 23/08 A3023 RMK A01 T02280082  RH  040%=      5-min Rain = 0
KGU1 241531Z 07003KT 23/08 A3023 RMK A01 T02280079  RH  040%=      5-min Rain = 0
KGU1 241532Z 07004KT 23/08 A3023 RMK A01 T02270079  RH  040%=      5-min Rain = 0
KGU1 241533Z 09003KT 23/08 A3023 RMK A01 T02250080  RH  040%=      5-min Rain = 0
KGU1 241534Z 09004KT 23/08 A3023 RMK A01 T02260080  RH  040%=      5-min Rain = 0
KGU1 241535Z 07004KT 23/08 A3023 RMK A01 T02270080  RH  040%=      5-min Rain = 0
KGU1 241536Z 11003KT 23/08 A3023 RMK A01 T02270080  RH  040%=      5-min Rain = 0
KGU1 241537Z 10002KT 23/08 A3023 RMK A01 T02280081  RH  040%=      5-min Rain = 0
KGU1 241538Z 09004KT 23/08 A3023 RMK A01 T02300081  RH  040%=      5-min Rain = 0
KGU1 241539Z 08003KT 23/08 A3023 RMK A01 T02280079  RH  040%=      5-min Rain = 0
KGU1 241540Z 07003KT 23/08 A3023 RMK A01 T02260080  RH  040%=      5-min Rain = 0
KGU1 241541Z 07004KT 23/08 A3023 RMK A01 T02260079  RH  040%=      5-min Rain = 0
KGU1 241542Z 07003KT 23/08 A3023 RMK A01 T02250079  RH  040%=      5-min Rain = 0
KGU1 241543Z 08003KT 22/08 A3023 RMK A01 T02240080  RH  041%=      5-min Rain = 0
KGU1 241544Z 09003KT 23/08 A3023 RMK A01 T02260081  RH  040%=      5-min Rain = 0
KGU1 241545Z 08004KT 23/08 A3023 RMK A01 T02290081  RH  040%=      5-min Rain = 0
KGU1 241546Z 08004KT 23/08 A3023 RMK A01 T02300080  RH  039%=      5-min Rain = 0
KGU1 241547Z 07004KT 23/08 A3023 RMK A01 T02290079  RH  039%=      5-min Rain = 0
KGU1 241548Z 08003KT 23/08 A3023 RMK A01 T02260079  RH  040%=      5-min Rain = 0
KGU1 241549Z 09004KT 23/08 A3023 RMK A01 T02250079  RH  040%=      5-min Rain = 0
KGU1 241550Z 09004KT 23/08 A3023 RMK A01 T02260079  RH  040%=      5-min Rain = 0
KGU1 241551Z 08003KT 23/08 A3023 RMK A01 T02260079  RH  040%=      5-min Rain = 0
KGU1 241552Z 08004KT 23/08 A3023 RMK A01 T02270079  RH  040%=      5-min Rain = 0
KGU1 241553Z 09005KT 23/08 A3023 RMK A01 T02290079  RH  039%=      5-min Rain = 0
KGU1 241554Z 08004KT 23/08 A3023 RMK A01 T02300078  RH  039%=      5-min Rain = 0
KGU1 241555Z 08003KT 23/08 A3024 RMK A01 T02270078  RH  039%=      5-min Rain = 0
KGU1 241556Z 08004KT 23/08 A3024 RMK A01 T02270078  RH  039%=      5-min Rain = 0
KGU1 241557Z 10003KT 23/08 A3024 RMK A01 T02270077  RH  039%=      5-min Rain = 0
KGU1 241558Z 10004KT 23/08 A3024 RMK A01 T02260075  RH  039%=      5-min Rain = 0
KGU1 241559Z 10005KT 23/08 A3024 RMK A01 T02270078  RH  039%=      5-min Rain = 0
KGU1 241600Z 10005KT 23/08 A3024 RMK A01 T02290079  RH  039%=      5-min Rain = 0
KGU1 241601Z 07005KT 23/08 A3024 RMK A01 T02300080  RH  039%=      5-min Rain = 0
KGU1 241602Z 07005KT 23/08 A3024 RMK A01 T02290079  RH  039%=      5-min Rain = 0
KGU1 241603Z 07004KT 23/08 A3024 RMK A01 T02270078  RH  040%=      5-min Rain = 0
KGU1 241604Z 09004KT 23/08 A3024 RMK A01 T02270078  RH  040%=      5-min Rain = 0
KGU1 241605Z 10005KT 23/08 A3024 RMK A01 T02300080  RH  039%=      5-min Rain = 0
KGU1 241606Z 11004KT 23/08 A3024 RMK A01 T02330079  RH  038%=      5-min Rain = 0
KGU1 241607Z 09004KT 24/08 A3024 RMK A01 T02350080  RH  038%=      5-min Rain = 0
KGU1 241608Z 06004KT 23/08 A3024 RMK A01 T02340078  RH  038%=      5-min Rain = 0
KGU1 241609Z 07003KT 23/08 A3024 RMK A01 T02320079  RH  039%=      5-min Rain = 0
KGU1 241610Z 09003KT 23/08 A3024 RMK A01 T02320078  RH  038%=      5-min Rain = 0
KGU1 241611Z 09004KT 23/08 A3024 RMK A01 T02310080  RH  039%=      5-min Rain = 0
KGU1 241612Z 09003KT 23/08 A3024 RMK A01 T02320081  RH  039%=      5-min Rain = 0
KGU1 241613Z 08004KT 23/08 A3024 RMK A01 T02300081  RH  039%=      5-min Rain = 0
KGU1 241614Z 09004KT 23/08 A3024 RMK A01 T02290081  RH  040%=      5-min Rain = 0
KGU1 241615Z 10004KT 23/08 A3024 RMK A01 T02290081  RH  040%=      5-min Rain = 0
KGU1 241616Z 10004KT 23/08 A3024 RMK A01 T02300082  RH  040%=      5-min Rain = 0
KGU1 241617Z 09004KT 23/08 A3024 RMK A01 T02310081  RH  039%=      5-min Rain = 0
KGU1 241618Z 08004KT 23/08 A3024 RMK A01 T02300082  RH  040%=      5-min Rain = 0
KGU1 241619Z 08003KT 23/08 A3024 RMK A01 T02310083  RH  040%=      5-min Rain = 0
KGU1 241620Z 07003KT 23/08 A3024 RMK A01 T02310083  RH  040%=      5-min Rain = 0
KGU1 241621Z 09004KT 23/08 A3024 RMK A01 T02310083  RH  040%=      5-min Rain = 0
KGU1 241622Z 08005KT 23/08 A3024 RMK A01 T02300083  RH  040%=      5-min Rain = 0
KGU1 241623Z 07004KT 23/08 A3024 RMK A01 T02300083  RH  040%=      5-min Rain = 0
KGU1 241624Z 09005KT 23/09 A3024 RMK A01 T02330085  RH  040%=      5-min Rain = 0
KGU1 241625Z 10004KT 23/08 A3024 RMK A01 T02340083  RH  039%=      5-min Rain = 0
KGU1 241626Z 11003KT 23/08 A3024 RMK A01 T02340084  RH  039%=      5-min Rain = 0
KGU1 241627Z 07005KT 24/09 A3024 RMK A01 T02350085  RH  040%=      5-min Rain = 0
KGU1 241628Z 06005KT 23/09 A3024 RMK A01 T02340085  RH  040%=      5-min Rain = 0
KGU1 241629Z 07004KT 23/09 A3024 RMK A01 T02320086  RH  040%=      5-min Rain = 0
KGU1 241630Z 08003KT 23/09 A3024 RMK A01 T02310086  RH  041%=      5-min Rain = 0
KGU1 241631Z 09006KT 23/09 A3024 RMK A01 T02320085  RH  040%=      5-min Rain = 0
KGU1 241632Z 09005KT 23/08 A3024 RMK A01 T02320082  RH  039%=      5-min Rain = 0
KGU1 241633Z 10004KT 23/08 A3024 RMK A01 T02310084  RH  040%=      5-min Rain = 0
KGU1 241634Z 10004KT 23/09 A3024 RMK A01 T02320086  RH  040%=      5-min Rain = 0
KGU1 241635Z 11006KT 23/09 A3024 RMK A01 T02340085  RH  040%=      5-min Rain = 0
KGU1 241636Z 10006KT 23/08 A3024 RMK A01 T02330082  RH  039%=      5-min Rain = 0
KGU1 241637Z 09005KT 23/08 A3024 RMK A01 T02300083  RH  040%=      5-min Rain = 0
KGU1 241638Z 09005KT 23/09 A3024 RMK A01 T02300085  RH  041%=      5-min Rain = 0
KGU1 241639Z 08004KT 23/08 A3024 RMK A01 T02300083  RH  040%=      5-min Rain = 0
KGU1 241640Z 08004KT 23/08 A3024 RMK A01 T02300082  RH  040%=      5-min Rain = 0
KGU1 241641Z 07004KT 23/08 A3024 RMK A01 T02310080  RH  039%=      5-min Rain = 0
KGU1 241642Z 08004KT 23/08 A3024 RMK A01 T02310081  RH  039%=      5-min Rain = 0
KGU1 241643Z 11005KT 23/09 A3024 RMK A01 T02310085  RH  041%=      5-min Rain = 0
KGU1 241644Z 12005KT 23/09 A3024 RMK A01 T02310086  RH  041%=      5-min Rain = 0
KGU1 241645Z 09006KT 23/09 A3024 RMK A01 T02340087  RH  040%=      5-min Rain = 0
KGU1 241646Z 10006KT 23/09 A3024 RMK A01 T02340085  RH  040%=      5-min Rain = 0
KGU1 241647Z 09003KT 23/08 A3024 RMK A01 T02330083  RH  040%=      5-min Rain = 0
KGU1 241648Z 12004KT 23/08 A3024 RMK A01 T02340080  RH  038%=      5-min Rain = 0
KGU1 241649Z 12004KT 23/08 A3024 RMK A01 T02340077  RH  038%=      5-min Rain = 0
KGU1 241650Z 13004KT 24/08 A3024 RMK A01 T02370079  RH  038%=      5-min Rain = 0
KGU1 241651Z 10003KT 24/08 A3024 RMK A01 T02410078  RH  036%=      5-min Rain = 0
KGU1 241652Z 07003KT 24/08 A3024 RMK A01 T02430079  RH  036%=      5-min Rain = 0
KGU1 241653Z 07004KT 24/08 A3024 RMK A01 T02440079  RH  036%=      5-min Rain = 0
KGU1 241654Z 07003KT 24/07 A3024 RMK A01 T02430074  RH  035%=      5-min Rain = 0
KGU1 241655Z 09002KT 24/07 A3024 RMK A01 T02410074  RH  035%=      5-min Rain = 0
KGU1 241656Z 08002KT 24/08 A3024 RMK A01 T02410075  RH  035%=      5-min Rain = 0
KGU1 241657Z 10003KT 24/08 A3024 RMK A01 T02420078  RH  036%=      5-min Rain = 0
KGU1 241658Z 10005KT 24/08 A3024 RMK A01 T02430079  RH  036%=      5-min Rain = 0
KGU1 241659Z 10003KT 24/08 A3024 RMK A01 T02440078  RH  036%=      5-min Rain = 0
KGU1 241700Z 08004KT 25/08 A3024 RMK A01 T02450077  RH  035%=      5-min Rain = 0
KGU1 241701Z 11003KT 25/07 A3024 RMK A01 T02450074  RH  034%=      5-min Rain = 0
KGU1 241702Z 13003KT 25/07 A3024 RMK A01 T02480074  RH  034%=      5-min Rain = 0
KGU1 241703Z 14004KT 25/07 A3024 RMK A01 T02510071  RH  032%=      5-min Rain = 0
KGU1 241704Z 15004KT 25/07 A3024 RMK A01 T02510069  RH  032%=      5-min Rain = 0
KGU1 241705Z 16002KT 25/07 A3024 RMK A01 T02490068  RH  032%=      5-min Rain = 0
KGU1 241706Z 17002KT 25/07 A3023 RMK A01 T02490070  RH  033%=      5-min Rain = 0
KGU1 241707Z 10004KT 25/07 A3023 RMK A01 T02500073  RH  033%=      5-min Rain = 0
KGU1 241708Z 09005KT 25/07 A3023 RMK A01 T02490072  RH  033%=      5-min Rain = 0
KGU1 241709Z 09004KT 25/07 A3023 RMK A01 T02490071  RH  033%=      5-min Rain = 0
KGU1 241710Z 07003KT 25/07 A3024 RMK A01 T02490069  RH  032%=      5-min Rain = 0
KGU1 241711Z 07003KT 25/07 A3023 RMK A01 T02490070  RH  033%=      5-min Rain = 0
KGU1 241712Z 06004KT 25/07 A3024 RMK A01 T02490069  RH  032%=      5-min Rain = 0
KGU1 241713Z 07004KT 25/07 A3023 RMK A01 T02460069  RH  033%=      5-min Rain = 0
KGU1 241714Z 07006KT 25/07 A3023 RMK A01 T02470071  RH  033%=      5-min Rain = 0
KGU1 241715Z 08005KT 25/07 A3023 RMK A01 T02490069  RH  032%=      5-min Rain = 0
KGU1 241716Z 08004KT 25/07 A3023 RMK A01 T02480066  RH  032%=      5-min Rain = 0
KGU1 241717Z 09005KT 25/07 A3023 RMK A01 T02460068  RH  033%=      5-min Rain = 0
KGU1 241718Z 08003KT 25/07 A3023 RMK A01 T02460067  RH  032%=      5-min Rain = 0
KGU1 241719Z 09003KT 25/07 A3023 RMK A01 T02480072  RH  033%=      5-min Rain = 0
KGU1 241720Z 08005KT 25/07 A3023 RMK A01 T02500073  RH  033%=      5-min Rain = 0
KGU1 241721Z 09005KT 25/07 A3023 RMK A01 T02530071  RH  032%=      5-min Rain = 0
KGU1 241722Z 10004KT 26/07 A3023 RMK A01 T02560070  RH  031%=      5-min Rain = 0
KGU1 241723Z 10003KT 25/07 A3023 RMK A01 T02540069  RH  032%=      5-min Rain = 0
KGU1 241724Z 10004KT 25/07 A3023 RMK A01 T02530069  RH  032%=      5-min Rain = 0
KGU1 241725Z 09006KT 25/07 A3023 RMK A01 T02530070  RH  032%=      5-min Rain = 0
KGU1 241726Z 12008KT 25/07 A3023 RMK A01 T02530071  RH  032%=      5-min Rain = 0
KGU1 241727Z 12006KT 25/07 A3023 RMK A01 T02530072  RH  032%=      5-min Rain = 0
KGU1 241728Z 12006KT 25/08 A3023 RMK A01 T02520076  RH  033%=      5-min Rain = 0
KGU1 241729Z 13006KT 26/07 A3023 RMK A01 T02550074  RH  032%=      5-min Rain = 0
KGU1 241730Z 12005KT 25/07 A3023 RMK A01 T02520074  RH  033%=      5-min Rain = 0
KGU1 241731Z 13007KT 25/07 A3023 RMK A01 T02520074  RH  033%=      5-min Rain = 0
KGU1 241732Z 09006KT 25/07 A3023 RMK A01 T02520071  RH  032%=      5-min Rain = 0
KGU1 241733Z 08005KT 25/07 A3023 RMK A01 T02500068  RH  032%=      5-min Rain = 0
KGU1 241734Z 07004KT 25/07 A3023 RMK A01 T02500068  RH  032%=      5-min Rain = 0
KGU1 241735Z 07005KT 25/07 A3023 RMK A01 T02500070  RH  032%=      5-min Rain = 0
KGU1 241736Z 07004KT 25/07 A3023 RMK A01 T02520069  RH  032%=      5-min Rain = 0
KGU1 241737Z 09005KT 25/07 A3023 RMK A01 T02510071  RH  032%=      5-min Rain = 0
KGU1 241738Z 11006KT 25/08 A3023 RMK A01 T02500075  RH  034%=      5-min Rain = 0
KGU1 241739Z 10005KT 25/08 A3023 RMK A01 T02510077  RH  034%=      5-min Rain = 0
KGU1 241740Z 08006KT 25/08 A3023 RMK A01 T02540077  RH  033%=      5-min Rain = 0
KGU1 241741Z 08005KT 26/08 A3023 RMK A01 T02560076  RH  033%=      5-min Rain = 0
KGU1 241742Z 08007KT 26/08 A3023 RMK A01 T02580076  RH  032%=      5-min Rain = 0
KGU1 241743Z 08007KT 26/08 A3023 RMK A01 T02580075  RH  032%=      5-min Rain = 0
KGU1 241744Z 05005KT 26/08 A3023 RMK A01 T02570075  RH  032%=      5-min Rain = 0
KGU1 241745Z 05002KT 26/07 A3023 RMK A01 T02560074  RH  032%=      5-min Rain = 0
KGU1 241746Z 09006KT 26/07 A3023 RMK A01 T02570074  RH  032%=      5-min Rain = 0
KGU1 241747Z 07008KT 26/07 A3023 RMK A01 T02600074  RH  032%=      5-min Rain = 0
KGU1 241748Z 06007KT 26/08 A3023 RMK A01 T02580076  RH  032%=      5-min Rain = 0
KGU1 241749Z 09005KT 26/08 A3023 RMK A01 T02570079  RH  033%=      5-min Rain = 0
KGU1 241750Z 11005KT 26/08 A3023 RMK A01 T02570077  RH  033%=      5-min Rain = 0
KGU1 241751Z 13005KT 26/08 A3023 RMK A01 T02570078  RH  033%=      5-min Rain = 0
KGU1 241752Z 12002KT 26/08 A3023 RMK A01 T02570077  RH  033%=      5-min Rain = 0
KGU1 241753Z 12003KT 26/08 A3023 RMK A01 T02580078  RH  033%=      5-min Rain = 0
KGU1 241754Z 11007KT 26/08 A3023 RMK A01 T02600078  RH  032%=      5-min Rain = 0
KGU1 241755Z 11006KT 26/08 A3023 RMK A01 T02600076  RH  032%=      5-min Rain = 0
KGU1 241756Z 11005KT 26/08 A3023 RMK A01 T02620077  RH  032%=      5-min Rain = 0
KGU1 241757Z 11006KT 26/07 A3023 RMK A01 T02610073  RH  031%=      5-min Rain = 0
KGU1 241758Z 11007KT 26/07 A3023 RMK A01 T02590069  RH  030%=      5-min Rain = 0
KGU1 241759Z 12005KT 26/06 A3023 RMK A01 T02590063  RH  029%=      5-min Rain = 0
KGU1 241800Z 11007G12KT 26/07 A3023 RMK A01 T02590069  RH  031%=      5-min Rain = 0
KGU1 241801Z 09008KT 26/07 A3023 RMK A01 T02600069  RH  030%=      5-min Rain = 0
KGU1 241802Z 10005KT 26/07 A3023 RMK A01 T02580071  RH  031%=      5-min Rain = 0
KGU1 241803Z 09007KT 26/07 A3023 RMK A01 T02580074  RH  032%=      5-min Rain = 0
KGU1 241804Z 08007KT 26/07 A3023 RMK A01 T02590068  RH  030%=      5-min Rain = 0
KGU1 241805Z 04005KT 26/06 A3022 RMK A01 T02570064  RH  030%=      5-min Rain = 0
KGU1 241806Z 08007KT 26/07 A3022 RMK A01 T02580069  RH  031%=      5-min Rain = 0
KGU1 241807Z 11009KT 26/07 A3022 RMK A01 T02610072  RH  031%=      5-min Rain = 0
KGU1 241808Z 10010KT 26/07 A3022 RMK A01 T02620071  RH  031%=      5-min Rain = 0
KGU1 241809Z 09007KT 26/07 A3022 RMK A01 T02600071  RH  031%=      5-min Rain = 0
KGU1 241810Z 12007KT 26/07 A3022 RMK A01 T02630071  RH  030%=      5-min Rain = 0
KGU1 241811Z 11007KT 26/07 A3022 RMK A01 T02630068  RH  030%=      5-min Rain = 0
KGU1 241812Z 09008KT 26/07 A3022 RMK A01 T02610070  RH  030%=      5-min Rain = 0
KGU1 241813Z 07007KT 26/06 A3022 RMK A01 T02610061  RH  028%=      5-min Rain = 0
KGU1 241814Z 08007KT 26/06 A3022 RMK A01 T02600060  RH  029%=      5-min Rain = 0
KGU1 241815Z 07006KT 26/06 A3022 RMK A01 T02610059  RH  028%=      5-min Rain = 0
KGU1 241816Z 06005KT 26/06 A3022 RMK A01 T02630057  RH  027%=      5-min Rain = 0
KGU1 241817Z 09006KT 26/06 A3022 RMK A01 T02640062  RH  028%=      5-min Rain = 0
KGU1 241818Z 09006KT 26/06 A3022 RMK A01 T02640063  RH  028%=      5-min Rain = 0
KGU1 241819Z 09008G15KT 26/07 A3022 RMK A01 T02640065  RH  029%=      5-min Rain = 0
KGU1 241820Z 08009KT 27/06 A3022 RMK A01 T02680063  RH  028%=      5-min Rain = 0
KGU1 241821Z 09007KT 27/06 A3022 RMK A01 T02670063  RH  028%=      5-min Rain = 0
KGU1 241822Z 08006KT 27/06 A3022 RMK A01 T02670061  RH  028%=      5-min Rain = 0
KGU1 241823Z 07008KT 26/06 A3022 RMK A01 T02640060  RH  028%=      5-min Rain = 0
KGU1 241824Z 05006KT 26/06 A3022 RMK A01 T02600057  RH  028%=      5-min Rain = 0
KGU1 241825Z 09005KT 26/06 A3022 RMK A01 T02600057  RH  028%=      5-min Rain = 0
KGU1 241826Z 11004KT 26/06 A3022 RMK A01 T02630056  RH  027%=      5-min Rain = 0
KGU1 241827Z 16001KT 26/06 A3022 RMK A01 T02640055  RH  027%=      5-min Rain = 0
KGU1 241828Z 08005G10KT 27/06 A3022 RMK A01 T02650056  RH  027%=      5-min Rain = 0
KGU1 241829Z 08009KT 26/06 A3022 RMK A01 T02640058  RH  027%=      5-min Rain = 0
KGU1 241830Z 07007KT 26/06 A3022 RMK A01 T02630058  RH  027%=      5-min Rain = 0
KGU1 241831Z 08008KT 26/06 A3022 RMK A01 T02620057  RH  028%=      5-min Rain = 0
KGU1 241832Z 08005KT 26/06 A3022 RMK A01 T02620055  RH  027%=      5-min Rain = 0
KGU1 241833Z 08004KT 26/06 A3022 RMK A01 T02630057  RH  027%=      5-min Rain = 0
KGU1 241834Z 07004KT 27/05 A3022 RMK A01 T02650053  RH  026%=      5-min Rain = 0
KGU1 241835Z 35002KT 26/05 A3022 RMK A01 T02640053  RH  026%=      5-min Rain = 0
KGU1 241836Z 06003KT 27/06 A3022 RMK A01 T02650055  RH  027%=      5-min Rain = 0
KGU1 241837Z 06005KT 27/05 A3022 RMK A01 T02660054  RH  026%=      5-min Rain = 0
KGU1 241838Z 06007KT 27/05 A3022 RMK A01 T02650053  RH  026%=      5-min Rain = 0
KGU1 241839Z 08004KT 26/05 A3022 RMK A01 T02620051  RH  026%=      5-min Rain = 0
KGU1 241840Z 07006KT 26/05 A3022 RMK A01 T02600054  RH  027%=      5-min Rain = 0
KGU1 241841Z 06005KT 26/05 A3022 RMK A01 T02610054  RH  027%=      5-min Rain = 0
KGU1 241842Z 07005KT 26/06 A3022 RMK A01 T02640056  RH  027%=      5-min Rain = 0
KGU1 241843Z 10007KT 27/05 A3021 RMK A01 T02680054  RH  026%=      5-min Rain = 0
KGU1 241844Z 11005KT 27/05 A3021 RMK A01 T02670052  RH  026%=      5-min Rain = 0
KGU1 241845Z 10004KT 27/05 A3021 RMK A01 T02670051  RH  026%=      5-min Rain = 0
KGU1 241846Z 11004KT 27/05 A3021 RMK A01 T02650051  RH  026%=      5-min Rain = 0
KGU1 241847Z 09004KT 26/05 A3021 RMK A01 T02640048  RH  025%=      5-min Rain = 0
KGU1 241848Z 04004G9KT 26/05 A3021 RMK A01 T02620050  RH  026%=      5-min Rain = 0
KGU1 241849Z 04007KT 27/05 A3021 RMK A01 T02670053  RH  026%=      5-min Rain = 0
KGU1 241850Z 05004KT 27/05 A3021 RMK A01 T02710053  RH  026%=      5-min Rain = 0
KGU1 241851Z 11007KT 27/05 A3021 RMK A01 T02700052  RH  025%=      5-min Rain = 0
KGU1 241852Z 12009KT 27/05 A3021 RMK A01 T02710053  RH  025%=      5-min Rain = 0
KGU1 241853Z 13008KT 27/05 A3021 RMK A01 T02700052  RH  025%=      5-min Rain = 0
KGU1 241854Z 13003KT 27/05 A3021 RMK A01 T02660053  RH  026%=      5-min Rain = 0
KGU1 241855Z 11002KT 27/05 A3021 RMK A01 T02670053  RH  026%=      5-min Rain = 0
KGU1 241856Z 07006KT 27/06 A3021 RMK A01 T02710057  RH  026%=      5-min Rain = 0
KGU1 241857Z 06007KT 27/06 A3021 RMK A01 T02730060  RH  026%=      5-min Rain = 0
KGU1 241858Z 07006KT 27/06 A3021 RMK A01 T02740061  RH  026%=      5-min Rain = 0
KGU1 241859Z 05008KT 27/06 A3021 RMK A01 T02700059  RH  027%=      5-min Rain = 0
KGU1 241900Z 05005KT 27/06 A3021 RMK A01 T02680056  RH  026%=      5-min Rain = 0
KGU1 241901Z 07004KT 27/06 A3021 RMK A01 T02660056  RH  027%=      5-min Rain = 0
KGU1 241902Z 04006KT 27/06 A3021 RMK A01 T02660058  RH  027%=      5-min Rain = 0
KGU1 241903Z 09004KT 27/06 A3021 RMK A01 T02660057  RH  027%=      5-min Rain = 0
KGU1 241904Z 12007KT 27/06 A3021 RMK A01 T02680058  RH  027%=      5-min Rain = 0
KGU1 241905Z 09009KT 27/06 A3021 RMK A01 T02700057  RH  026%=      5-min Rain = 0
KGU1 241906Z 11006KT 27/06 A3021 RMK A01 T02680057  RH  027%=      5-min Rain = 0
KGU1 241907Z 10006KT 27/06 A3021 RMK A01 T02690059  RH  027%=      5-min Rain = 0
KGU1 241908Z 12008KT 27/06 A3021 RMK A01 T02710057  RH  026%=      5-min Rain = 0
KGU1 241909Z 12008KT 27/06 A3021 RMK A01 T02690058  RH  026%=      5-min Rain = 0
KGU1 241910Z 09008KT 27/06 A302 RMK A01 T02690057  RH  026%=      5-min Rain = 0
KGU1 241911Z 09008G13KT 27/06 A302 RMK A01 T02670058  RH  027%=      5-min Rain = 0
KGU1 241912Z 09010KT 27/06 A302 RMK A01 T02690059  RH  027%=      5-min Rain = 0
KGU1 241913Z 09007KT 27/06 A302 RMK A01 T02690059  RH  027%=      5-min Rain = 0
KGU1 241914Z 09007KT 27/06 A302 RMK A01 T02690058  RH  027%=      5-min Rain = 0
KGU1 241915Z 09006KT 27/06 A302 RMK A01 T02680057  RH  027%=      5-min Rain = 0
KGU1 241916Z 10006KT 27/06 A302 RMK A01 T02680057  RH  027%=      5-min Rain = 0
KGU1 241917Z 09003KT 27/06 A302 RMK A01 T02670056  RH  027%=      5-min Rain = 0
KGU1 241918Z 09008KT 27/06 A302 RMK A01 T02670058  RH  027%=      5-min Rain = 0
KGU1 241919Z 10006KT 27/06 A302 RMK A01 T02700058  RH  026%=      5-min Rain = 0
KGU1 241920Z 11008KT 27/06 A302 RMK A01 T02720059  RH  026%=      5-min Rain = 0
KGU1 241921Z 11005KT 27/06 A302 RMK A01 T02710057  RH  026%=      5-min Rain = 0
KGU1 241922Z 10006KT 27/06 A302 RMK A01 T02690056  RH  026%=      5-min Rain = 0
KGU1 241923Z 08007KT 27/06 A302 RMK A01 T02680057  RH  027%=      5-min Rain = 0
KGU1 241924Z 08008KT 27/06 A302 RMK A01 T02710056  RH  026%=      5-min Rain = 0
KGU1 241925Z 08007KT 27/06 A302 RMK A01 T02690056  RH  026%=      5-min Rain = 0
KGU1 241926Z 08006KT 27/06 A302 RMK A01 T02690056  RH  026%=      5-min Rain = 0
KGU1 241927Z 11005KT 27/06 A302 RMK A01 T02710056  RH  026%=      5-min Rain = 0
KGU1 241928Z 11005KT 27/06 A302 RMK A01 T02710055  RH  026%=      5-min Rain = 0
KGU1 241929Z 11006KT 27/06 A302 RMK A01 T02710056  RH  026%=      5-min Rain = 0
KGU1 241930Z 12003KT 27/06 A302 RMK A01 T02710056  RH  026%=      5-min Rain = 0
KGU1 241931Z 08009KT 27/06 A302 RMK A01 T02720058  RH  026%=      5-min Rain = 0
KGU1 241932Z 08008KT 27/06 A302 RMK A01 T02740058  RH  026%=      5-min Rain = 0
KGU1 241933Z 09006KT 27/06 A302 RMK A01 T02720057  RH  026%=      5-min Rain = 0
KGU1 241934Z 11007KT 27/06 A302 RMK A01 T02720058  RH  026%=      5-min Rain = 0
KGU1 241935Z 09008KT 27/06 A302 RMK A01 T02740058  RH  026%=      5-min Rain = 0
KGU1 241936Z 08007KT 27/06 A302 RMK A01 T02740056  RH  026%=      5-min Rain = 0
KGU1 241937Z 09004KT 27/06 A3019 RMK A01 T02700055  RH  026%=      5-min Rain = 0
KGU1 241938Z 10006KT 27/06 A3019 RMK A01 T02700057  RH  026%=      5-min Rain = 0
KGU1 241939Z 08003KT 27/06 A3019 RMK A01 T02710056  RH  026%=      5-min Rain = 0
KGU1 241940Z 07005G10KT 27/06 A3019 RMK A01 T02720057  RH  026%=      5-min Rain = 0
KGU1 241941Z 07006KT 27/06 A3019 RMK A01 T02730055  RH  026%=      5-min Rain = 0
KGU1 241942Z 10002KT 27/06 A3019 RMK A01 T02720055  RH  026%=      5-min Rain = 0
KGU1 241943Z 12004KT 27/06 A3019 RMK A01 T02720055  RH  026%=      5-min Rain = 0
KGU1 241944Z 08004KT 27/06 A3019 RMK A01 T02730055  RH  026%=      5-min Rain = 0
KGU1 241945Z 07005KT 27/06 A3019 RMK A01 T02720056  RH  026%=      5-min Rain = 0
KGU1 241946Z 09008G13KT 27/06 A3019 RMK A01 T02730057  RH  026%=      5-min Rain = 0
KGU1 241947Z 09009KT 28/06 A3019 RMK A01 T02760057  RH  025%=      5-min Rain = 0
KGU1 241948Z 12007KT 28/06 A3019 RMK A01 T02780057  RH  025%=      5-min Rain = 0
KGU1 241949Z 12008KT 28/06 A3019 RMK A01 T02800056  RH  025%=      5-min Rain = 0
KGU1 241950Z 12006KT 28/06 A3019 RMK A01 T02770055  RH  025%=      5-min Rain = 0
KGU1 241951Z 10008KT 27/06 A3018 RMK A01 T02740055  RH  025%=      5-min Rain = 0
KGU1 241952Z 11009KT 27/06 A3018 RMK A01 T02720056  RH  026%=      5-min Rain = 0
KGU1 241953Z 09010KT 27/06 A3018 RMK A01 T02730055  RH  026%=      5-min Rain = 0
KGU1 241954Z 07008KT 27/06 A3018 RMK A01 T02730055  RH  026%=      5-min Rain = 0
KGU1 241955Z 06006KT 28/06 A3018 RMK A01 T02750057  RH  025%=      5-min Rain = 0
KGU1 241956Z 05009KT 28/06 A3018 RMK A01 T02800058  RH  025%=      5-min Rain = 0
KGU1 241957Z 08009KT 28/06 A3018 RMK A01 T02820057  RH  024%=      5-min Rain = 0
KGU1 241958Z 08010KT 28/06 A3018 RMK A01 T02810056  RH  024%=      5-min Rain = 0
KGU1 241959Z 10010KT 28/06 A3018 RMK A01 T02770055  RH  025%=      5-min Rain = 0
KGU1 242000Z 10005KT 27/06 A3018 RMK A01 T02740055  RH  025%=      5-min Rain = 0
KGU1 242001Z 10009KT 28/06 A3018 RMK A01 T02760057  RH  025%=      5-min Rain = 0
KGU1 242002Z 12006KT 28/06 A3018 RMK A01 T02770055  RH  025%=      5-min Rain = 0
KGU1 242003Z 13008G13KT 27/06 A3018 RMK A01 T02740055  RH  025%=      5-min Rain = 0
KGU1 242004Z 14007KT 27/06 A3018 RMK A01 T02720055  RH  026%=      5-min Rain = 0
KGU1 242005Z 15007KT 28/06 A3018 RMK A01 T02750057  RH  025%=      5-min Rain = 0
KGU1 242006Z 15005KT 28/06 A3018 RMK A01 T02750055  RH  025%=      5-min Rain = 0
KGU1 242007Z 14005KT 28/06 A3018 RMK A01 T02760056  RH  025%=      5-min Rain = 0
KGU1 242008Z 11008KT 28/06 A3018 RMK A01 T02760056  RH  025%=      5-min Rain = 0
KGU1 242009Z 11007KT 28/06 A3018 RMK A01 T02770056  RH  025%=      5-min Rain = 0
KGU1 242010Z 11009KT 28/06 A3018 RMK A01 T02750056  RH  025%=      5-min Rain = 0
KGU1 242011Z 09010KT 28/06 A3018 RMK A01 T02770057  RH  025%=      5-min Rain = 0
KGU1 242012Z 08012KT 28/06 A3018 RMK A01 T02780056  RH  025%=      5-min Rain = 0
KGU1 242013Z 07009KT 28/06 A3018 RMK A01 T02760056  RH  025%=      5-min Rain = 0
KGU1 242014Z 09005KT 27/06 A3018 RMK A01 T02740055  RH  025%=      5-min Rain = 0
KGU1 242015Z 08006KT 27/06 A3018 RMK A01 T02740056  RH  026%=      5-min Rain = 0
KGU1 242016Z 11006KT 28/06 A3017 RMK A01 T02780058  RH  025%=      5-min Rain = 0
KGU1 242017Z 10009KT 28/06 A3018 RMK A01 T02810057  RH  025%=      5-min Rain = 0
KGU1 242018Z 07007KT 28/06 A3018 RMK A01 T02800057  RH  025%=      5-min Rain = 0
KGU1 242019Z 06009KT 28/06 A3018 RMK A01 T02800056  RH  025%=      5-min Rain = 0
KGU1 242020Z 09006KT 28/06 A3018 RMK A01 T02780056  RH  025%=      5-min Rain = 0
KGU1 242021Z 08008KT 28/06 A3017 RMK A01 T02780056  RH  025%=      5-min Rain = 0
KGU1 242022Z 09006KT 28/06 A3017 RMK A01 T02770055  RH  025%=      5-min Rain = 0
KGU1 242023Z 11006KT 28/06 A3017 RMK A01 T02750056  RH  025%=      5-min Rain = 0
KGU1 242024Z 14006KT 28/06 A3017 RMK A01 T02760056  RH  025%=      5-min Rain = 0
KGU1 242025Z 13006KT 28/06 A3017 RMK A01 T02770057  RH  025%=      5-min Rain = 0
KGU1 242026Z 10008KT 28/06 A3017 RMK A01 T02800057  RH  025%=      5-min Rain = 0
KGU1 242027Z 10008KT 28/06 A3017 RMK A01 T02760055  RH  025%=      5-min Rain = 0
KGU1 242028Z 11003KT 28/06 A3017 RMK A01 T02750056  RH  025%=      5-min Rain = 0
KGU1 242029Z 09003KT 28/06 A3017 RMK A01 T02760055  RH  025%=      5-min Rain = 0
KGU1 242030Z 12005KT 28/06 A3017 RMK A01 T02750056  RH  025%=      5-min Rain = 0
KGU1 242031Z 11007KT 28/06 A3017 RMK A01 T02780057  RH  025%=      5-min Rain = 0
KGU1 242032Z 12009KT 28/06 A3017 RMK A01 T02780055  RH  025%=      5-min Rain = 0
KGU1 242033Z 14008KT 27/06 A3017 RMK A01 T02740055  RH  025%=      5-min Rain = 0
KGU1 242034Z 13008KT 27/06 A3017 RMK A01 T02740056  RH  026%=      5-min Rain = 0
KGU1 242035Z 13007KT 28/06 A3017 RMK A01 T02750056  RH  025%=      5-min Rain = 0
KGU1 242036Z 12009KT 28/06 A3017 RMK A01 T02800058  RH  025%=      5-min Rain = 0
KGU1 242037Z 14008KT 28/06 A3017 RMK A01 T02790057  RH  025%=      5-min Rain = 0
KGU1 242038Z 15006KT 28/06 A3017 RMK A01 T02790057  RH  025%=      5-min Rain = 0
KGU1 242039Z 13008KT 28/06 A3017 RMK A01 T02790058  RH  025%=      5-min Rain = 0
KGU1 242040Z 10008KT 28/06 A3017 RMK A01 T02800057  RH  025%=      5-min Rain = 0
KGU1 242041Z 11005KT 28/06 A3017 RMK A01 T02780055  RH  025%=      5-min Rain = 0
KGU1 242042Z 10010KT 28/06 A3017 RMK A01 T02770057  RH  025%=      5-min Rain = 0
KGU1 242043Z 10010KT 28/06 A3017 RMK A01 T02780056  RH  025%=      5-min Rain = 0
KGU1 242044Z 11009KT 28/06 A3017 RMK A01 T02770056  RH  025%=      5-min Rain = 0
KGU1 242045Z 12006KT 28/06 A3017 RMK A01 T02750056  RH  025%=      5-min Rain = 0
KGU1 242046Z 12004KT 27/06 A3017 RMK A01 T02740056  RH  025%=      5-min Rain = 0
KGU1 242047Z 14006KT 28/06 A3017 RMK A01 T02760057  RH  025%=      5-min Rain = 0
KGU1 242048Z 14005KT 28/06 A3017 RMK A01 T02760055  RH  025%=      5-min Rain = 0
KGU1 242049Z 13003KT 27/06 A3017 RMK A01 T02730055  RH  025%=      5-min Rain = 0
KGU1 242050Z 13004KT 27/06 A3017 RMK A01 T02730055  RH  026%=      5-min Rain = 0
KGU1 242051Z 15002KT 27/06 A3017 RMK A01 T02740055  RH  025%=      5-min Rain = 0
KGU1 242052Z 11001KT 27/06 A3016 RMK A01 T02740055  RH  025%=      5-min Rain = 0
KGU1 242053Z 00000KT 28/06 A3016 RMK A01 T02750055  RH  025%=      5-min Rain = 0
KGU1 242054Z 03003KT 28/06 A3016 RMK A01 T02760056  RH  025%=      5-min Rain = 0
KGU1 242055Z 06004KT 28/06 A3016 RMK A01 T02770056  RH  025%=      5-min Rain = 0
KGU1 242056Z 06005KT 28/06 A3016 RMK A01 T02790057  RH  025%=      5-min Rain = 0
KGU1 242057Z 07005KT 28/06 A3016 RMK A01 T02800057  RH  025%=      5-min Rain = 0
KGU1 242058Z 06004KT 28/06 A3016 RMK A01 T02810056  RH  025%=      5-min Rain = 0
KGU1 242059Z 06001KT 28/06 A3016 RMK A01 T02780056  RH  025%=      5-min Rain = 0
KGU1 242100Z 11007KT 28/06 A3016 RMK A01 T02800058  RH  025%=      5-min Rain = 0
KGU1 242101Z 12008KT 28/06 A3016 RMK A01 T02830058  RH  025%=      5-min Rain = 0
KGU1 242102Z 13007KT 28/06 A3016 RMK A01 T02830057  RH  024%=      5-min Rain = 0
KGU1 242103Z 14007KT 28/06 A3016 RMK A01 T02800057  RH  025%=      5-min Rain = 0
KGU1 242104Z 14006KT 28/06 A3016 RMK A01 T02800057  RH  025%=      5-min Rain = 0
KGU1 242105Z 15006KT 28/06 A3016 RMK A01 T02770056  RH  025%=      5-min Rain = 0
KGU1 242106Z 15006KT 28/06 A3016 RMK A01 T02760056  RH  025%=      5-min Rain = 0
KGU1 242107Z 14006KT 28/06 A3016 RMK A01 T02750056  RH  025%=      5-min Rain = 0
KGU1 242108Z 11006KT 27/06 A3016 RMK A01 T02730056  RH  026%=      5-min Rain = 0
KGU1 242109Z 10004KT 27/06 A3016 RMK A01 T02710056  RH  026%=      5-min Rain = 0
KGU1 242110Z 08007KT 27/06 A3016 RMK A01 T02720058  RH  026%=      5-min Rain = 0
KGU1 242111Z 06006KT 27/06 A3016 RMK A01 T02740058  RH  026%=      5-min Rain = 0
KGU1 242112Z 05008KT 28/06 A3016 RMK A01 T02750059  RH  026%=      5-min Rain = 0
KGU1 242113Z 05010KT 28/06 A3016 RMK A01 T02760059  RH  026%=      5-min Rain = 0
KGU1 242114Z 06009KT 28/06 A3016 RMK A01 T02770058  RH  025%=      5-min Rain = 0
KGU1 242115Z 05008KT 28/06 A3016 RMK A01 T02770057  RH  025%=      5-min Rain = 0
KGU1 242116Z 04007KT 27/06 A3016 RMK A01 T02740057  RH  026%=      5-min Rain = 0
KGU1 242117Z 05005KT 27/06 A3016 RMK A01 T02740058  RH  026%=      5-min Rain = 0
KGU1 242118Z 08003KT 28/06 A3016 RMK A01 T02770057  RH  025%=      5-min Rain = 0
KGU1 242119Z 11004KT 28/06 A3016 RMK A01 T02760056  RH  025%=      5-min Rain = 0
KGU1 242120Z 12002KT 27/06 A3016 RMK A01 T02730056  RH  026%=      5-min Rain = 0
KGU1 242121Z 15005KT 27/06 A3016 RMK A01 T02720056  RH  026%=      5-min Rain = 0
KGU1 242122Z 17005KT 27/06 A3016 RMK A01 T02720057  RH  026%=      5-min Rain = 0
KGU1 242123Z 16004KT 27/06 A3016 RMK A01 T02730057  RH  026%=      5-min Rain = 0
KGU1 242124Z 14000KT 27/06 A3016 RMK A01 T02720056  RH  026%=      5-min Rain = 0
KGU1 242125Z 11000KT 27/06 A3016 RMK A01 T02720056  RH  026%=      5-min Rain = 0
KGU1 242126Z 09003KT 27/06 A3016 RMK A01 T02720056  RH  026%=      5-min Rain = 0
KGU1 242127Z 11003KT 27/06 A3016 RMK A01 T02720057  RH  026%=      5-min Rain = 0
KGU1 242128Z 12003KT 27/06 A3016 RMK A01 T02730058  RH  026%=      5-min Rain = 0
KGU1 242129Z 09005KT 27/06 A3016 RMK A01 T02740059  RH  026%=      5-min Rain = 0
KGU1 242130Z 09008KT 28/06 A3015 RMK A01 T02760060  RH  026%=      5-min Rain = 0
KGU1 242131Z 10008KT 28/06 A3015 RMK A01 T02790060  RH  025%=      5-min Rain = 0
KGU1 242132Z 11006KT 28/06 A3015 RMK A01 T02770058  RH  025%=      5-min Rain = 0
KGU1 242133Z 13004KT 28/06 A3015 RMK A01 T02760058  RH  026%=      5-min Rain = 0
KGU1 242134Z 15006KT 28/06 A3015 RMK A01 T02760059  RH  026%=      5-min Rain = 0
KGU1 242135Z 15005KT 28/06 A3015 RMK A01 T02760059  RH  026%=      5-min Rain = 0
KGU1 242136Z 13007KT 28/06 A3015 RMK A01 T02760060  RH  026%=      5-min Rain = 0
KGU1 242137Z 10009KT 28/06 A3015 RMK A01 T02790061  RH  026%=      5-min Rain = 0
KGU1 242138Z 12008KT 28/06 A3015 RMK A01 T02800060  RH  025%=      5-min Rain = 0
KGU1 242139Z 06005KT 28/06 A3015 RMK A01 T02780060  RH  026%=      5-min Rain = 0
KGU1 242140Z 07004KT 28/06 A3015 RMK A01 T02790060  RH  025%=      5-min Rain = 0
KGU1 242141Z 08006KT 28/06 A3015 RMK A01 T02780059  RH  025%=      5-min Rain = 0
KGU1 242142Z 10006KT 28/06 A3015 RMK A01 T02790059  RH  025%=      5-min Rain = 0
KGU1 242143Z 08007KT 28/06 A3015 RMK A01 T02780060  RH  025%=      5-min Rain = 0
KGU1 242144Z 06004KT 28/06 A3016 RMK A01 T02760058  RH  026%=      5-min Rain = 0
KGU1 242145Z 10002KT 27/06 A3015 RMK A01 T02720058  RH  026%=      5-min Rain = 0
KGU1 242146Z 11004KT 27/06 A3015 RMK A01 T02730059  RH  026%=      5-min Rain = 0
KGU1 242147Z 12004KT 27/06 A3015 RMK A01 T02740059  RH  026%=      5-min Rain = 0
KGU1 242148Z 14004KT 28/06 A3015 RMK A01 T02750060  RH  026%=      5-min Rain = 0
KGU1 242149Z 15005KT 28/06 A3015 RMK A01 T02750059  RH  026%=      5-min Rain = 0
KGU1 242150Z 11004KT 27/06 A3015 RMK A01 T02720059  RH  026%=      5-min Rain = 0
KGU1 242151Z 08007KT 27/06 A3015 RMK A01 T02720059  RH  026%=      5-min Rain = 0
KGU1 242152Z 07008KT 27/06 A3015 RMK A01 T02710058  RH  026%=      5-min Rain = 0
KGU1 242153Z 07006KT 27/06 A3015 RMK A01 T02690058  RH  027%=      5-min Rain = 0
KGU1 242154Z 08005KT 27/06 A3015 RMK A01 T02690058  RH  027%=      5-min Rain = 0
KGU1 242155Z 08005KT 27/06 A3015 RMK A01 T02700058  RH  026%=      5-min Rain = 0
KGU1 242156Z 08003KT 27/06 A3015 RMK A01 T02710057  RH  026%=      5-min Rain = 0
KGU1 242157Z 09004KT 27/06 A3015 RMK A01 T02710057  RH  026%=      5-min Rain = 0
KGU1 242158Z 09004KT 27/06 A3015 RMK A01 T02710058  RH  026%=      5-min Rain = 0
KGU1 242159Z 08004KT 27/06 A3015 RMK A01 T02730059  RH  026%=      5-min Rain = 0
KGU1 242200Z 05005KT 27/06 A3016 RMK A01 T02730058  RH  026%=      5-min Rain = 0
KGU1 242201Z 08003KT 27/06 A3015 RMK A01 T02710057  RH  026%=      5-min Rain = 0
KGU1 242202Z 12002KT 27/06 A3015 RMK A01 T02700058  RH  026%=      5-min Rain = 0
KGU1 242203Z 18001KT 27/06 A3015 RMK A01 T02680057  RH  027%=      5-min Rain = 0
KGU1 242204Z 14000KT 27/06 A3015 RMK A01 T02670057  RH  027%=      5-min Rain = 0
KGU1 242205Z 08002KT 27/06 A3015 RMK A01 T02680058  RH  027%=      5-min Rain = 0
KGU1 242206Z 02003KT 27/06 A3015 RMK A01 T02710059  RH  026%=      5-min Rain = 0
KGU1 242207Z 35003KT 27/06 A3015 RMK A01 T02720059  RH  026%=      5-min Rain = 0
KGU1 242208Z 02002KT 27/06 A3015 RMK A01 T02720058  RH  026%=      5-min Rain = 0
KGU1 242209Z 05005KT 27/06 A3015 RMK A01 T02720059  RH  026%=      5-min Rain = 0
KGU1 242210Z 05003KT 27/06 A3015 RMK A01 T02730059  RH  026%=      5-min Rain = 0
KGU1 242211Z 03002KT 27/06 A3015 RMK A01 T02740059  RH  026%=      5-min Rain = 0
KGU1 242212Z 01001KT 27/06 A3015 RMK A01 T02740059  RH  026%=      5-min Rain = 0
KGU1 242213Z 02001KT 27/06 A3015 RMK A01 T02740059  RH  026%=      5-min Rain = 0
KGU1 242214Z 03000KT 28/06 A3015 RMK A01 T02750059  RH  026%=      5-min Rain = 0
KGU1 242215Z 01000KT 28/06 A3015 RMK A01 T02750058  RH  026%=      5-min Rain = 0
KGU1 242216Z 19002KT 28/06 A3015 RMK A01 T02750059  RH  026%=      5-min Rain = 0
KGU1 242217Z 18002KT 27/06 A3015 RMK A01 T02740062  RH  027%=      5-min Rain = 0
KGU1 242218Z 26001KT 28/06 A3015 RMK A01 T02750061  RH  026%=      5-min Rain = 0
KGU1 242219Z 33001KT 28/06 A3015 RMK A01 T02750060  RH  026%=      5-min Rain = 0
KGU1 242220Z 01003KT 27/06 A3015 RMK A01 T02730059  RH  026%=      5-min Rain = 0
KGU1 242221Z 34003KT 27/06 A3015 RMK A01 T02700058  RH  026%=      5-min Rain = 0
KGU1 242222Z 33003KT 27/06 A3015 RMK A01 T02700059  RH  027%=      5-min Rain = 0
KGU1 242223Z 04003KT 27/06 A3015 RMK A01 T02720063  RH  027%=      5-min Rain = 0
KGU1 242224Z 04004KT 27/07 A3015 RMK A01 T02740065  RH  027%=      5-min Rain = 0
KGU1 242225Z 03006KT 27/07 A3015 RMK A01 T02740066  RH  027%=      5-min Rain = 0
KGU1 242226Z 04004KT 28/07 A3015 RMK A01 T02750067  RH  027%=      5-min Rain = 0
KGU1 242227Z 11005KT 28/07 A3015 RMK A01 T02760066  RH  027%=      5-min Rain = 0
KGU1 242228Z 12005KT 28/06 A3015 RMK A01 T02760063  RH  026%=      5-min Rain = 0
KGU1 242229Z 13008KT 28/06 A3015 RMK A01 T02750064  RH  027%=      5-min Rain = 0
KGU1 242230Z 14008KT 27/06 A3015 RMK A01 T02730063  RH  027%=      5-min Rain = 0
KGU1 242231Z 15006KT 27/06 A3015 RMK A01 T02700063  RH  027%=      5-min Rain = 0
KGU1 242232Z 14006KT 27/06 A3015 RMK A01 T02680062  RH  027%=      5-min Rain = 0
KGU1 242233Z 13005KT 27/06 A3015 RMK A01 T02670062  RH  028%=      5-min Rain = 0
KGU1 242234Z 14005KT 27/06 A3015 RMK A01 T02650063  RH  028%=      5-min Rain = 0
KGU1 242235Z 15004KT 27/06 A3015 RMK A01 T02650062  RH  028%=      5-min Rain = 0
KGU1 242236Z 13005KT 27/06 A3015 RMK A01 T02660063  RH  028%=      5-min Rain = 0
KGU1 242237Z 13006KT 27/06 A3015 RMK A01 T02680064  RH  028%=      5-min Rain = 0
KGU1 242238Z 13007KT 27/06 A3015 RMK A01 T02690064  RH  028%=      5-min Rain = 0
KGU1 242239Z 14005KT 27/06 A3015 RMK A01 T02690064  RH  028%=      5-min Rain = 0
KGU1 242240Z 09008KT 27/06 A3015 RMK A01 T02700064  RH  028%=      5-min Rain = 0
KGU1 242241Z 10008KT 27/06 A3015 RMK A01 T02700063  RH  027%=      5-min Rain = 0
KGU1 242242Z 09007KT 27/06 A3015 RMK A01 T02690063  RH  028%=      5-min Rain = 0
KGU1 242243Z 05007KT 27/06 A3015 RMK A01 T02690063  RH  028%=      5-min Rain = 0
KGU1 242244Z 03005KT 27/06 A3015 RMK A01 T02690063  RH  028%=      5-min Rain = 0
KGU1 242245Z 08004KT 27/06 A3015 RMK A01 T02690063  RH  028%=      5-min Rain = 0
KGU1 242246Z 10005KT 27/06 A3015 RMK A01 T02690063  RH  028%=      5-min Rain = 0
KGU1 242247Z 07004KT 27/06 A3015 RMK A01 T02690063  RH  028%=      5-min Rain = 0
KGU1 242248Z 08004KT 27/06 A3015 RMK A01 T02690063  RH  028%=      5-min Rain = 0
KGU1 242249Z 09007KT 27/06 A3015 RMK A01 T02690064  RH  028%=      5-min Rain = 0
KGU1 242250Z 08007KT 27/06 A3015 RMK A01 T02690064  RH  028%=      5-min Rain = 0
KGU1 242251Z 06007KT 27/06 A3015 RMK A01 T02690063  RH  028%=      5-min Rain = 0
KGU1 242252Z 08006KT 27/06 A3015 RMK A01 T02690063  RH  028%=      5-min Rain = 0
KGU1 242253Z 07004KT 27/06 A3015 RMK A01 T02690064  RH  028%=      5-min Rain = 0
KGU1 242254Z 08003KT 27/07 A3015 RMK A01 T02720065  RH  027%=      5-min Rain = 0
KGU1 242255Z 07002KT 27/07 A3015 RMK A01 T02740065  RH  027%=      5-min Rain = 0
KGU1 242256Z 07003KT 27/06 A3015 RMK A01 T02740064  RH  027%=      5-min Rain = 0
KGU1 242257Z 03003KT 27/06 A3015 RMK A01 T02740064  RH  027%=      5-min Rain = 0
KGU1 242258Z 05004KT 27/07 A3015 RMK A01 T02720065  RH  027%=      5-min Rain = 0
KGU1 242259Z 07007KT 27/07 A3015 RMK A01 T02720065  RH  028%=      5-min Rain = 0
KGU1 242300Z 07007KT 27/07 A3015 RMK A01 T02690065  RH  028%=      5-min Rain = 0
KGU1 242301Z 06005KT 27/07 A3015 RMK A01 T02660065  RH  028%=      5-min Rain = 0
KGU1 242302Z 05003KT 27/07 A3015 RMK A01 T02670067  RH  029%=      5-min Rain = 0
KGU1 242303Z 08006KT 27/07 A3015 RMK A01 T02690066  RH  028%=      5-min Rain = 0
KGU1 242304Z 07007KT 27/07 A3014 RMK A01 T02690065  RH  028%=      5-min Rain = 0
KGU1 242305Z 07003KT 27/07 A3015 RMK A01 T02690065  RH  028%=      5-min Rain = 0
KGU1 242306Z 04001KT 27/06 A3014 RMK A01 T02700064  RH  028%=      5-min Rain = 0
KGU1 242307Z 05000KT 27/06 A3014 RMK A01 T02700064  RH  028%=      5-min Rain = 0
KGU1 242308Z 11002KT 27/06 A3014 RMK A01 T02690064  RH  028%=      5-min Rain = 0
KGU1 242309Z 10002KT 27/06 A3014 RMK A01 T02680064  RH  028%=      5-min Rain = 0
KGU1 242310Z 11006KT 27/07 A3014 RMK A01 T02670066  RH  028%=      5-min Rain = 0
KGU1 242311Z 10005KT 27/07 A3014 RMK A01 T02670067  RH  029%=      5-min Rain = 0
KGU1 242312Z 09005KT 27/07 A3014 RMK A01 T02660066  RH  029%=      5-min Rain = 0
KGU1 242313Z 08003KT 27/07 A3014 RMK A01 T02650065  RH  029%=      5-min Rain = 0
KGU1 242314Z 11002KT 27/07 A3014 RMK A01 T02650066  RH  029%=      5-min Rain = 0
KGU1 242315Z 10004KT 27/07 A3014 RMK A01 T02650065  RH  029%=      5-min Rain = 0
KGU1 242316Z 13004KT 27/07 A3014 RMK A01 T02660067  RH  029%=      5-min Rain = 0
KGU1 242317Z 14004KT 27/07 A3014 RMK A01 T02670067  RH  029%=      5-min Rain = 0
KGU1 242318Z 15004KT 27/07 A3014 RMK A01 T02680067  RH  028%=      5-min Rain = 0
KGU1 242319Z 14003KT 27/07 A3014 RMK A01 T02680066  RH  028%=      5-min Rain = 0
KGU1 242320Z 14002KT 27/07 A3014 RMK A01 T02670066  RH  029%=      5-min Rain = 0
KGU1 242321Z 13004KT 27/07 A3014 RMK A01 T02670067  RH  029%=      5-min Rain = 0
KGU1 242322Z 11005KT 27/07 A3014 RMK A01 T02670066  RH  028%=      5-min Rain = 0
KGU1 242323Z 10005KT 27/07 A3014 RMK A01 T02670066  RH  029%=      5-min Rain = 0
KGU1 242324Z 10006KT 27/07 A3014 RMK A01 T02670066  RH  029%=      5-min Rain = 0
KGU1 242325Z 08004KT 27/07 A3014 RMK A01 T02670066  RH  029%=      5-min Rain = 0
KGU1 242326Z 06006KT 27/07 A3014 RMK A01 T02690067  RH  028%=      5-min Rain = 0
KGU1 242327Z 05007KT 27/07 A3014 RMK A01 T02690066  RH  028%=      5-min Rain = 0
KGU1 242328Z 04008KT 27/07 A3014 RMK A01 T02680066  RH  028%=      5-min Rain = 0
KGU1 242329Z 04006KT 27/07 A3014 RMK A01 T02680066  RH  028%=      5-min Rain = 0
KGU1 242330Z 07005KT 27/06 A3014 RMK A01 T02670064  RH  028%=      5-min Rain = 0
KGU1 242331Z 06004KT 27/07 A3014 RMK A01 T02660065  RH  028%=      5-min Rain = 0
KGU1 242332Z 06005KT 27/07 A3014 RMK A01 T02650065  RH  029%=      5-min Rain = 0
KGU1 242333Z 06005KT 26/06 A3014 RMK A01 T02640064  RH  029%=      5-min Rain = 0
KGU1 242334Z 05005KT 26/06 A3014 RMK A01 T02630064  RH  029%=      5-min Rain = 0
KGU1 242335Z 06004KT 26/06 A3014 RMK A01 T02620064  RH  029%=      5-min Rain = 0
KGU1 242336Z 06003KT 26/06 A3014 RMK A01 T02610064  RH  029%=      5-min Rain = 0
KGU1 242337Z 06002KT 26/06 A3014 RMK A01 T02610064  RH  029%=      5-min Rain = 0
KGU1 242338Z 05002KT 26/07 A3014 RMK A01 T02620065  RH  029%=      5-min Rain = 0
KGU1 242339Z 06003KT 26/07 A3014 RMK A01 T02630065  RH  029%=      5-min Rain = 0
KGU1 242340Z 06004KT 26/06 A3014 RMK A01 T02640063  RH  029%=      5-min Rain = 0
KGU1 242341Z 03003KT 26/06 A3014 RMK A01 T02640063  RH  028%=      5-min Rain = 0
KGU1 242342Z 03003KT 26/06 A3014 RMK A01 T02640063  RH  028%=      5-min Rain = 0
KGU1 242343Z 03003KT 27/07 A3014 RMK A01 T02650065  RH  029%=      5-min Rain = 0
KGU1 242344Z 03003KT 27/06 A3014 RMK A01 T02650063  RH  028%=      5-min Rain = 0
KGU1 242345Z 04003KT 27/06 A3014 RMK A01 T02650064  RH  028%=      5-min Rain = 0
KGU1 242346Z 03003KT 27/06 A3014 RMK A01 T02650064  RH  028%=      5-min Rain = 0
KGU1 242347Z 03002KT 27/06 A3014 RMK A01 T02650064  RH  028%=      5-min Rain = 0
KGU1 242348Z 05002KT 27/06 A3014 RMK A01 T02650064  RH  028%=      5-min Rain = 0
KGU1 242349Z 08003KT 27/07 A3014 RMK A01 T02660065  RH  029%=      5-min Rain = 0
KGU1 242350Z 10005KT 27/07 A3014 RMK A01 T02660066  RH  029%=      5-min Rain = 0
KGU1 242351Z 11004KT 27/07 A3014 RMK A01 T02660065  RH  029%=      5-min Rain = 0
KGU1 242352Z 10005KT 27/07 A3014 RMK A01 T02650065  RH  029%=      5-min Rain = 0
KGU1 242353Z 08006KT 26/07 A3014 RMK A01 T02640065  RH  029%=      5-min Rain = 0
KGU1 242354Z 07005KT 26/06 A3014 RMK A01 T02640064  RH  029%=      5-min Rain = 0
KGU1 242355Z 07005KT 26/07 A3014 RMK A01 T02630065  RH  029%=      5-min Rain = 0
KGU1 242356Z 07004KT 26/07 A3014 RMK A01 T02630065  RH  029%=      5-min Rain = 0
KGU1 242357Z 07004KT 26/07 A3014 RMK A01 T02630065  RH  029%=      5-min Rain = 0
KGU1 242358Z 07005KT 26/07 A3014 RMK A01 T02630065  RH  029%=      5-min Rain = 0
KGU1 242359Z 08004KT 26/06 A3014 RMK A01 T02620064  RH  029%=      5-min Rain = 0
KGU1 250000Z 10004KT 26/07 A3014 RMK A01 T02620065  RH  029%=      5-min Rain = 0
KGU1 250001Z 08004KT 26/07 A3014 RMK A01 T02610065  RH  029%=      5-min Rain = 0
KGU1 250002Z 08004KT 26/07 A3014 RMK A01 T02610066  RH  029%=      5-min Rain = 0
KGU1 250003Z 09004KT 26/07 A3014 RMK A01 T02610066  RH  029%=      5-min Rain = 0
KGU1 250004Z 06004KT 26/07 A3014 RMK A01 T02610067  RH  030%=      5-min Rain = 0
KGU1 250005Z 07004KT 26/07 A3014 RMK A01 T02600066  RH  030%=      5-min Rain = 0
KGU1 250006Z 07004KT 26/07 A3014 RMK A01 T02590067  RH  030%=      5-min Rain = 0
KGU1 250007Z 06005KT 26/07 A3014 RMK A01 T02580067  RH  030%=      5-min Rain = 0
KGU1 250008Z 06004KT 26/07 A3014 RMK A01 T02580068  RH  030%=      5-min Rain = 0
KGU1 250009Z 06005KT 26/07 A3014 RMK A01 T02570068  RH  031%=      5-min Rain = 0
KGU1 250010Z 06005KT 26/07 A3014 RMK A01 T02560067  RH  031%=      5-min Rain = 0
KGU1 250011Z 05004KT 26/07 A3014 RMK A01 T02550067  RH  031%=      5-min Rain = 0
KGU1 250012Z 06003KT 25/07 A3014 RMK A01 T02540067  RH  031%=      5-min Rain = 0
KGU1 250013Z 06004KT 25/07 A3015 RMK A01 T02530067  RH  031%=      5-min Rain = 0
KGU1 250014Z 05004KT 25/07 A3015 RMK A01 T02520068  RH  032%=      5-min Rain = 0
KGU1 250015Z 05004KT 25/07 A3015 RMK A01 T02510068  RH  032%=      5-min Rain = 0
KGU1 250016Z 06003KT 25/07 A3015 RMK A01 T02500069  RH  032%=      5-min Rain = 0
KGU1 250017Z 06003KT 25/07 A3015 RMK A01 T02490069  RH  032%=      5-min Rain = 0
KGU1 250018Z 06004KT 25/07 A3015 RMK A01 T02480070  RH  033%=      5-min Rain = 0
KGU1 250019Z 06003KT 25/07 A3015 RMK A01 T02480070  RH  033%=      5-min Rain = 0
KGU1 250020Z 07004KT 25/07 A3015 RMK A01 T02470070  RH  033%=      5-min Rain = 0
KGU1 250021Z 07004KT 25/07 A3015 RMK A01 T02470069  RH  033%=      5-min Rain = 0
KGU1 250022Z 06003KT 25/07 A3015 RMK A01 T02470069  RH  033%=      5-min Rain = 0
KGU1 250023Z 07002KT 25/07 A3015 RMK A01 T02470069  RH  033%=      5-min Rain = 0
KGU1 250024Z 08002KT 25/07 A3015 RMK A01 T02470070  RH  033%=      5-min Rain = 0
KGU1 250025Z 06003KT 25/07 A3015 RMK A01 T02460070  RH  033%=      5-min Rain = 0
KGU1 250026Z 07004KT 25/07 A3015 RMK A01 T02460069  RH  033%=      5-min Rain = 0
KGU1 250027Z 06004KT 25/07 A3015 RMK A01 T02450069  RH  033%=      5-min Rain = 0
KGU1 250028Z 03002KT 25/07 A3015 RMK A01 T02460070  RH  033%=      5-min Rain = 0
KGU1 250029Z 00002KT 25/07 A3015 RMK A01 T02450071  RH  033%=      5-min Rain = 0
KGU1 250030Z 02001KT 25/07 A3015 RMK A01 T02450071  RH  034%=      5-min Rain = 0
KGU1 250031Z 01001KT 24/07 A3015 RMK A01 T02440071  RH  034%=      5-min Rain = 0
KGU1 250032Z 01003KT 24/07 A3015 RMK A01 T02420071  RH  034%=      5-min Rain = 0
KGU1 250033Z 01004KT 24/07 A3015 RMK A01 T02410071  RH  035%=      5-min Rain = 0
KGU1 250034Z 01003KT 24/07 A3015 RMK A01 T02400070  RH  035%=      5-min Rain = 0
KGU1 250035Z 01004KT 24/07 A3015 RMK A01 T02390070  RH  035%=      5-min Rain = 0
KGU1 250036Z 01004KT 24/07 A3015 RMK A01 T02380070  RH  035%=      5-min Rain = 0
KGU1 250037Z 02004KT 24/07 A3015 RMK A01 T02380070  RH  035%=      5-min Rain = 0
KGU1 250038Z 02004KT 24/07 A3015 RMK A01 T02370069  RH  035%=      5-min Rain = 0
KGU1 250039Z 02004KT 24/07 A3015 RMK A01 T02360070  RH  035%=      5-min Rain = 0
KGU1 250040Z 02003KT 24/07 A3015 RMK A01 T02360070  RH  035%=      5-min Rain = 0
KGU1 250041Z 02003KT 24/07 A3015 RMK A01 T02350069  RH  035%=      5-min Rain = 0
KGU1 250042Z 02004KT 23/07 A3015 RMK A01 T02340070  RH  036%=      5-min Rain = 0
KGU1 250043Z 02004KT 23/07 A3015 RMK A01 T02340069  RH  036%=      5-min Rain = 0
KGU1 250044Z 03004KT 23/07 A3015 RMK A01 T02330069  RH  036%=      5-min Rain = 0
KGU1 250045Z 03003KT 23/07 A3015 RMK A01 T02330069  RH  036%=      5-min Rain = 0
KGU1 250046Z 02004KT 23/07 A3015 RMK A01 T02330069  RH  036%=      5-min Rain = 0
KGU1 250047Z 02004KT 23/07 A3015 RMK A01 T02320070  RH  036%=      5-min Rain = 0
KGU1 250048Z 03005KT 23/07 A3015 RMK A01 T02320069  RH  036%=      5-min Rain = 0
KGU1 250049Z 02004KT 23/07 A3015 RMK A01 T02320069  RH  036%=      5-min Rain = 0
KGU1 250050Z 02004KT 23/07 A3015 RMK A01 T02320069  RH  036%=      5-min Rain = 0
KGU1 250051Z 02004KT 23/07 A3015 RMK A01 T02310069  RH  036%=      5-min Rain = 0
KGU1 250052Z 02005KT 23/07 A3015 RMK A01 T02310069  RH  036%=      5-min Rain = 0
KGU1 250053Z 02004KT 23/07 A3015 RMK A01 T02300069  RH  036%=      5-min Rain = 0
KGU1 250054Z 02004KT 23/07 A3015 RMK A01 T02310069  RH  036%=      5-min Rain = 0
KGU1 250055Z 02004KT 23/07 A3015 RMK A01 T02310069  RH  036%=      5-min Rain = 0
KGU1 250056Z 02004KT 23/07 A3015 RMK A01 T02310069  RH  036%=      5-min Rain = 0
KGU1 250057Z 02004KT 23/07 A3015 RMK A01 T02310069  RH  036%=      5-min Rain = 0
KGU1 250058Z 02004KT 23/07 A3015 RMK A01 T02300069  RH  036%=      5-min Rain = 0
KGU1 250059Z 02003KT 23/07 A3015 RMK A01 T02300069  RH  036%=      5-min Rain = 0
KGU1 250100Z 03003KT 23/07 A3015 RMK A01 T02300069  RH  036%=      5-min Rain = 0
KGU1 250101Z 02004KT 23/07 A3015 RMK A01 T02290069  RH  037%=      5-min Rain = 0
KGU1 250102Z 03005KT 23/07 A3015 RMK A01 T02290069  RH  036%=      5-min Rain = 0
KGU1 250103Z 03004KT 23/07 A3015 RMK A01 T02300069  RH  036%=      5-min Rain = 0
KGU1 250104Z 02003KT 23/07 A3016 RMK A01 T02300069  RH  036%=      5-min Rain = 0
KGU1 250105Z 02003KT 23/07 A3016 RMK A01 T02300069  RH  036%=      5-min Rain = 0
KGU1 250106Z 02003KT 23/07 A3016 RMK A01 T02300069  RH  036%=      5-min Rain = 0
KGU1 250107Z 02003KT 23/07 A3016 RMK A01 T02300069  RH  036%=      5-min Rain = 0
KGU1 250108Z 02003KT 23/07 A3016 RMK A01 T02290069  RH  037%=      5-min Rain = 0
KGU1 250109Z 02003KT 23/07 A3016 RMK A01 T02280069  RH  037%=      5-min Rain = 0
KGU1 250110Z 02004KT 23/07 A3016 RMK A01 T02280069  RH  037%=      5-min Rain = 0
KGU1 250111Z 02004KT 23/07 A3016 RMK A01 T02280069  RH  037%=      5-min Rain = 0
KGU1 250112Z 02004KT 23/07 A3016 RMK A01 T02270069  RH  037%=      5-min Rain = 0
KGU1 250113Z 02005KT 23/07 A3016 RMK A01 T02270069  RH  037%=      5-min Rain = 0
KGU1 250114Z 02004KT 23/07 A3016 RMK A01 T02270069  RH  037%=      5-min Rain = 0
KGU1 250115Z 03005KT 23/07 A3016 RMK A01 T02270069  RH  037%=      5-min Rain = 0
KGU1 250116Z 02003KT 23/07 A3016 RMK A01 T02270069  RH  037%=      5-min Rain = 0
KGU1 250117Z 03004KT 23/07 A3016 RMK A01 T02260069  RH  037%=      5-min Rain = 0
KGU1 250118Z 02005KT 23/07 A3016 RMK A01 T02260069  RH  037%=      5-min Rain = 0
KGU1 250119Z 02004KT 23/07 A3016 RMK A01 T02260069  RH  037%=      5-min Rain = 0
KGU1 250120Z 02005KT 23/07 A3016 RMK A01 T02260069  RH  037%=      5-min Rain = 0
KGU1 250121Z 03005KT 23/07 A3016 RMK A01 T02260069  RH  037%=      5-min Rain = 0
KGU1 250122Z 03006KT 23/07 A3016 RMK A01 T02250069  RH  037%=      5-min Rain = 0
KGU1 250123Z 02005KT 23/07 A3016 RMK A01 T02260069  RH  037%=      5-min Rain = 0
KGU1 250124Z 01006KT 23/07 A3016 RMK A01 T02260069  RH  037%=      5-min Rain = 0
KGU1 250125Z 01005KT 23/07 A3016 RMK A01 T02260069  RH  037%=      5-min Rain = 0
KGU1 250126Z 01006KT 23/07 A3016 RMK A01 T02270069  RH  037%=      5-min Rain = 0
KGU1 250127Z 02006KT 23/07 A3016 RMK A01 T02280069  RH  037%=      5-min Rain = 0
KGU1 250128Z 03006KT 23/07 A3016 RMK A01 T02270069  RH  037%=      5-min Rain = 0
KGU1 250129Z 03005KT 23/07 A3016 RMK A01 T02280069  RH  037%=      5-min Rain = 0
KGU1 250130Z 02005KT 23/07 A3016 RMK A01 T02270069  RH  037%=      5-min Rain = 0
KGU1 250131Z 02005KT 23/07 A3016 RMK A01 T02270069  RH  037%=      5-min Rain = 0
KGU1 250132Z 03005KT 23/07 A3016 RMK A01 T02260069  RH  037%=      5-min Rain = 0
KGU1 250133Z 02004KT 23/07 A3016 RMK A01 T02260069  RH  037%=      5-min Rain = 0
KGU1 250134Z 02005KT 23/07 A3016 RMK A01 T02260069  RH  037%=      5-min Rain = 0
KGU1 250135Z 03006KT 23/07 A3016 RMK A01 T02260069  RH  037%=      5-min Rain = 0
KGU1 250136Z 03004KT 23/07 A3016 RMK A01 T02260069  RH  037%=      5-min Rain = 0
KGU1 250137Z 02005KT 23/07 A3016 RMK A01 T02260069  RH  037%=      5-min Rain = 0
KGU1 250138Z 01003KT 23/07 A3016 RMK A01 T02260069  RH  037%=      5-min Rain = 0
KGU1 250139Z 02005KT 23/07 A3016 RMK A01 T02250069  RH  037%=      5-min Rain = 0
KGU1 250140Z 02004KT 23/07 A3016 RMK A01 T02250069  RH  038%=      5-min Rain = 0
KGU1 250141Z 01004KT 23/07 A3016 RMK A01 T02250069  RH  037%=      5-min Rain = 0
KGU1 250142Z 01004KT 22/07 A3016 RMK A01 T02240069  RH  038%=      5-min Rain = 0
KGU1 250143Z 01005KT 22/07 A3016 RMK A01 T02240068  RH  038%=      5-min Rain = 0
KGU1 250144Z 01005KT 22/07 A3016 RMK A01 T02240068  RH  038%=      5-min Rain = 0
KGU1 250145Z 01005KT 22/07 A3016 RMK A01 T02240069  RH  038%=      5-min Rain = 0
KGU1 250146Z 01005KT 22/07 A3016 RMK A01 T02230069  RH  038%=      5-min Rain = 0
KGU1 250147Z 02005KT 22/07 A3016 RMK A01 T02220069  RH  038%=      5-min Rain = 0
KGU1 250148Z 02004KT 22/07 A3016 RMK A01 T02220069  RH  038%=      5-min Rain = 0
KGU1 250149Z 02005KT 22/07 A3016 RMK A01 T02230069  RH  038%=      5-min Rain = 0
KGU1 250150Z 02004KT 22/07 A3016 RMK A01 T02230069  RH  038%=      5-min Rain = 0
KGU1 250151Z 01004KT 22/07 A3016 RMK A01 T02220069  RH  038%=      5-min Rain = 0
KGU1 250152Z 02005KT 22/07 A3016 RMK A01 T02220069  RH  038%=      5-min Rain = 0
KGU1 250153Z 01005KT 22/07 A3016 RMK A01 T02220069  RH  038%=      5-min Rain = 0
KGU1 250154Z 02004KT 22/07 A3016 RMK A01 T02220069  RH  038%=      5-min Rain = 0
KGU1 250155Z 02005KT 22/07 A3016 RMK A01 T02210069  RH  038%=      5-min Rain = 0
KGU1 250156Z 02005KT 22/07 A3017 RMK A01 T02210069  RH  038%=      5-min Rain = 0
KGU1 250157Z 02005KT 22/07 A3017 RMK A01 T02210068  RH  038%=      5-min Rain = 0
KGU1 250158Z 03006KT 22/07 A3017 RMK A01 T02210069  RH  038%=      5-min Rain = 0
KGU1 250159Z 03005KT 22/07 A3017 RMK A01 T02210069  RH  038%=      5-min Rain = 0
KGU1 250200Z 02005KT 22/07 A3017 RMK A01 T02220069  RH  038%=      5-min Rain = 0
KGU1 250201Z 02005KT 22/07 A3017 RMK A01 T02220069  RH  038%=      5-min Rain = 0
KGU1 250202Z 02004KT 22/07 A3017 RMK A01 T02230069  RH  038%=      5-min Rain = 0
KGU1 250203Z 02004KT 22/07 A3017 RMK A01 T02220068  RH  038%=      5-min Rain = 0
KGU1 250204Z 03004KT 22/07 A3017 RMK A01 T02220069  RH  038%=      5-min Rain = 0
KGU1 250205Z 02004KT 22/07 A3017 RMK A01 T02220068  RH  038%=      5-min Rain = 0
KGU1 250206Z 03005KT 22/07 A3017 RMK A01 T02220069  RH  038%=      5-min Rain = 0
KGU1 250207Z 01005KT 22/07 A3017 RMK A01 T02220068  RH  038%=      5-min Rain = 0
KGU1 250208Z 02006KT 22/07 A3017 RMK A01 T02230068  RH  038%=      5-min Rain = 0
KGU1 250209Z 01005KT 22/07 A3017 RMK A01 T02240068  RH  038%=      5-min Rain = 0
KGU1 250210Z 01006KT 22/07 A3017 RMK A01 T02230069  RH  038%=      5-min Rain = 0
KGU1 250211Z 03004KT 22/07 A3017 RMK A01 T02220069  RH  038%=      5-min Rain = 0
KGU1 250212Z 04003KT 22/07 A3017 RMK A01 T02220069  RH  038%=      5-min Rain = 0
KGU1 250213Z 02003KT 22/07 A3017 RMK A01 T02220068  RH  038%=      5-min Rain = 0
KGU1 250214Z 02003KT 22/07 A3017 RMK A01 T02210068  RH  038%=      5-min Rain = 0
KGU1 250215Z 03003KT 22/07 A3017 RMK A01 T02200068  RH  038%=      5-min Rain = 0
KGU1 250216Z 02003KT 22/07 A3017 RMK A01 T02200069  RH  038%=      5-min Rain = 0
KGU1 250217Z 01004KT 22/07 A3017 RMK A01 T02190069  RH  039%=      5-min Rain = 0
KGU1 250218Z 01004KT 22/07 A3017 RMK A01 T02200069  RH  039%=      5-min Rain = 0
KGU1 250219Z 02006KT 22/07 A3017 RMK A01 T02200069  RH  039%=      5-min Rain = 0
KGU1 250220Z 02005KT 22/07 A3017 RMK A01 T02200069  RH  038%=      5-min Rain = 0
KGU1 250221Z 01004KT 22/07 A3017 RMK A01 T02210069  RH  038%=      5-min Rain = 0
KGU1 250222Z 02003KT 22/07 A3017 RMK A01 T02210069  RH  038%=      5-min Rain = 0
KGU1 250223Z 01005KT 22/07 A3017 RMK A01 T02200069  RH  039%=      5-min Rain = 0
KGU1 250224Z 01006KT 22/07 A3017 RMK A01 T02190068  RH  039%=      5-min Rain = 0
KGU1 250225Z 01005KT 22/07 A3017 RMK A01 T02200069  RH  038%=      5-min Rain = 0
KGU1 250226Z 01005KT 22/07 A3017 RMK A01 T02190069  RH  039%=      5-min Rain = 0
KGU1 250227Z 01005KT 22/07 A3017 RMK A01 T02190068  RH  039%=      5-min Rain = 0
KGU1 250228Z 01005KT 22/07 A3017 RMK A01 T02190068  RH  039%=      5-min Rain = 0
KGU1 250229Z 01005KT 22/07 A3017 RMK A01 T02190069  RH  039%=      5-min Rain = 0
KGU1 250230Z 01005KT 22/07 A3017 RMK A01 T02180069  RH  039%=      5-min Rain = 0
KGU1 250231Z 02005KT 22/07 A3017 RMK A01 T02170069  RH  039%=      5-min Rain = 0
KGU1 250232Z 02006KT 22/07 A3018 RMK A01 T02160069  RH  039%=      5-min Rain = 0
KGU1 250233Z 01005KT 22/07 A3018 RMK A01 T02180069  RH  039%=      5-min Rain = 0
KGU1 250234Z 02005KT 22/07 A3018 RMK A01 T02190069  RH  039%=      5-min Rain = 0
KGU1 250235Z 03004KT 22/07 A3018 RMK A01 T02190069  RH  039%=      5-min Rain = 0
KGU1 250236Z 03003KT 22/07 A3018 RMK A01 T02180069  RH  039%=      5-min Rain = 0
KGU1 250237Z 03004KT 22/07 A3018 RMK A01 T02170069  RH  039%=      5-min Rain = 0
KGU1 250238Z 04005KT 22/07 A3018 RMK A01 T02170069  RH  039%=      5-min Rain = 0
KGU1 250239Z 04006KT 22/07 A3018 RMK A01 T02180068  RH  039%=      5-min Rain = 0
KGU1 250240Z 02006KT 22/07 A3018 RMK A01 T02190068  RH  039%=      5-min Rain = 0
KGU1 250241Z 03006KT 22/07 A3018 RMK A01 T02200068  RH  038%=      5-min Rain = 0
KGU1 250242Z 03004KT 22/07 A3018 RMK A01 T02200069  RH  039%=      5-min Rain = 0
KGU1 250243Z 02005KT 22/07 A3018 RMK A01 T02190069  RH  039%=      5-min Rain = 0
KGU1 250244Z 02004KT 22/07 A3018 RMK A01 T02190069  RH  039%=      5-min Rain = 0
KGU1 250245Z 01004KT 22/07 A3018 RMK A01 T02180069  RH  039%=      5-min Rain = 0
KGU1 250246Z 04005KT 22/07 A3018 RMK A01 T02170069  RH  039%=      5-min Rain = 0
KGU1 250247Z 03004KT 22/07 A3018 RMK A01 T02180069  RH  039%=      5-min Rain = 0
KGU1 250248Z 03004KT 22/07 A3018 RMK A01 T02170069  RH  039%=      5-min Rain = 0
KGU1 250249Z 03004KT 22/07 A3018 RMK A01 T02160069  RH  040%=      5-min Rain = 0
KGU1 250250Z 03004KT 22/07 A3018 RMK A01 T02150069  RH  040%=      5-min Rain = 0
KGU1 250251Z 02004KT 22/07 A3018 RMK A01 T02160069  RH  040%=      5-min Rain = 0
KGU1 250252Z 02004KT 22/07 A3018 RMK A01 T02170069  RH  039%=      5-min Rain = 0
KGU1 250253Z 01003KT 22/07 A3018 RMK A01 T02180069  RH  039%=      5-min Rain = 0
KGU1 250254Z 01003KT 22/07 A3018 RMK A01 T02180069  RH  039%=      5-min Rain = 0
KGU1 250255Z 00007KT 22/07 A3018 RMK A01 T02170069  RH  039%=      5-min Rain = 0
KGU1 250256Z 02005KT 22/07 A3018 RMK A01 T02170069  RH  039%=      5-min Rain = 0
KGU1 250257Z 01004KT 22/07 A3018 RMK A01 T02170069  RH  039%=      5-min Rain = 0
KGU1 250258Z 01004KT 22/07 A3018 RMK A01 T02160069  RH  039%=      5-min Rain = 0
KGU1 250259Z 01003KT 22/07 A3018 RMK A01 T02150069  RH  040%=      5-min Rain = 0
KGU1 250300Z 02003KT 21/07 A3018 RMK A01 T02140069  RH  040%=      5-min Rain = 0
KGU1 250301Z 03003KT 21/07 A3018 RMK A01 T02130069  RH  040%=      5-min Rain = 0
KGU1 250302Z 02005KT 21/07 A3018 RMK A01 T02130069  RH  040%=      5-min Rain = 0
KGU1 250303Z 02004KT 21/07 A3018 RMK A01 T02140069  RH  040%=      5-min Rain = 0
KGU1 250304Z 02004KT 22/07 A3018 RMK A01 T02150069  RH  040%=      5-min Rain = 0
KGU1 250305Z 01004KT 22/07 A3018 RMK A01 T02160069  RH  040%=      5-min Rain = 0
KGU1 250306Z 01005KT 22/07 A3019 RMK A01 T02170069  RH  039%=      5-min Rain = 0
KGU1 250307Z 04004KT 22/07 A3019 RMK A01 T02170069  RH  039%=      5-min Rain = 0
KGU1 250308Z 03003KT 22/07 A3019 RMK A01 T02170069  RH  039%=      5-min Rain = 0
KGU1 250309Z 02003KT 22/07 A3019 RMK A01 T02160069  RH  040%=      5-min Rain = 0
KGU1 250310Z 02003KT 22/07 A3019 RMK A01 T02160069  RH  040%=      5-min Rain = 0
KGU1 250311Z 02003KT 22/07 A3019 RMK A01 T02160069  RH  040%=      5-min Rain = 0
KGU1 250312Z 00004KT 22/07 A3019 RMK A01 T02150069  RH  040%=      5-min Rain = 0
KGU1 250313Z 02004KT 22/07 A3019 RMK A01 T02150069  RH  040%=      5-min Rain = 0
KGU1 250314Z 02003KT 22/07 A3019 RMK A01 T02150069  RH  040%=      5-min Rain = 0
KGU1 250315Z 02004KT 22/07 A3019 RMK A01 T02150069  RH  040%=      5-min Rain = 0
KGU1 250316Z 01004KT 22/07 A3019 RMK A01 T02160069  RH  040%=      5-min Rain = 0
KGU1 250317Z 01005KT 22/07 A3019 RMK A01 T02160069  RH  040%=      5-min Rain = 0
KGU1 250318Z 00005KT 22/07 A3019 RMK A01 T02150069  RH  040%=      5-min Rain = 0
KGU1 250319Z 01006KT 22/07 A3019 RMK A01 T02150069  RH  040%=      5-min Rain = 0
KGU1 250320Z 00006KT 21/07 A3019 RMK A01 T02140069  RH  040%=      5-min Rain = 0
KGU1 250321Z 01005KT 21/07 A3019 RMK A01 T02140069  RH  040%=      5-min Rain = 0
KGU1 250322Z 03005KT 21/07 A3019 RMK A01 T02140070  RH  040%=      5-min Rain = 0
KGU1 250323Z 01005KT 22/07 A3019 RMK A01 T02160070  RH  040%=      5-min Rain = 0
KGU1 250324Z 02005KT 22/07 A3019 RMK A01 T02170070  RH  040%=      5-min Rain = 0
KGU1 250325Z 02004KT 22/07 A3019 RMK A01 T02170070  RH  040%=      5-min Rain = 0
KGU1 250326Z 03006KT 22/07 A3019 RMK A01 T02170069  RH  040%=      5-min Rain = 0
KGU1 250327Z 01004KT 22/07 A3019 RMK A01 T02180070  RH  039%=      5-min Rain = 0
KGU1 250328Z 02004KT 22/07 A3019 RMK A01 T02180069  RH  039%=      5-min Rain = 0
KGU1 250329Z 01005KT 22/07 A3019 RMK A01 T02160069  RH  040%=      5-min Rain = 0
KGU1 250330Z 01006KT 22/07 A3019 RMK A01 T02150070  RH  040%=      5-min Rain = 0
KGU1 250331Z 01006KT 21/07 A3019 RMK A01 T02140070  RH  040%=      5-min Rain = 0
KGU1 250332Z 00005KT 22/07 A3019 RMK A01 T02150069  RH  040%=      5-min Rain = 0
KGU1 250333Z 02004KT 21/07 A3019 RMK A01 T02140070  RH  040%=      5-min Rain = 0
KGU1 250334Z 01005KT 21/07 A3019 RMK A01 T02130069  RH  040%=      5-min Rain = 0
KGU1 250335Z 01005KT 21/07 A3019 RMK A01 T02140069  RH  040%=      5-min Rain = 0
KGU1 250336Z 01004KT 22/07 A3019 RMK A01 T02150070  RH  040%=      5-min Rain = 0
KGU1 250337Z 01004KT 22/07 A3019 RMK A01 T02150070  RH  040%=      5-min Rain = 0
KGU1 250338Z 00004KT 21/07 A3019 RMK A01 T02140069  RH  040%=      5-min Rain = 0
KGU1 250339Z 35004KT 21/07 A3019 RMK A01 T02140069  RH  040%=      5-min Rain = 0
KGU1 250340Z 36005KT 21/07 A3019 RMK A01 T02130069  RH  040%=      5-min Rain = 0
KGU1 250341Z 35005KT 21/07 A3019 RMK A01 T02130069  RH  040%=      5-min Rain = 0
KGU1 250342Z 02005KT 22/07 A3019 RMK A01 T02150069  RH  040%=      5-min Rain = 0
KGU1 250343Z 03005KT 22/07 A3019 RMK A01 T02160068  RH  039%=      5-min Rain = 0
KGU1 250344Z 01005KT 22/07 A3019 RMK A01 T02160068  RH  039%=      5-min Rain = 0
KGU1 250345Z 01006KT 22/07 A3019 RMK A01 T02150068  RH  040%=      5-min Rain = 0
KGU1 250346Z 01004KT 22/07 A3019 RMK A01 T02150068  RH  040%=      5-min Rain = 0
KGU1 250347Z 02004KT 22/07 A3019 RMK A01 T02160066  RH  039%=      5-min Rain = 0
KGU1 250348Z 01004KT 22/07 A3019 RMK A01 T02170066  RH  039%=      5-min Rain = 0
KGU1 250349Z 00005KT 22/07 A3019 RMK A01 T02180067  RH  039%=      5-min Rain = 0
KGU1 250350Z 01004KT 22/07 A3019 RMK A01 T02170067  RH  039%=      5-min Rain = 0
KGU1 250351Z 03002KT 22/07 A3019 RMK A01 T02160067  RH  039%=      5-min Rain = 0
KGU1 250352Z 02002KT 22/07 A3019 RMK A01 T02150067  RH  039%=      5-min Rain = 0
KGU1 250353Z 03002KT 22/07 A3019 RMK A01 T02150067  RH  039%=      5-min Rain = 0
KGU1 250354Z 02003KT 21/07 A3019 RMK A01 T02140067  RH  040%=      5-min Rain = 0
KGU1 250355Z 01003KT 21/07 A3019 RMK A01 T02130067  RH  040%=      5-min Rain = 0
KGU1 250356Z 02002KT 21/07 A3019 RMK A01 T02130066  RH  040%=      5-min Rain = 0
KGU1 250357Z 02002KT 21/07 A3019 RMK A01 T02120066  RH  040%=      5-min Rain = 0
KGU1 250358Z 02002KT 21/07 A3019 RMK A01 T02120065  RH  040%=      5-min Rain = 0
KGU1 250359Z 01002KT 21/07 A3019 RMK A01 T02110065  RH  040%=      5-min Rain = 0
KGU1 250400Z 00002KT 21/06 A3019 RMK A01 T02110064  RH  039%=      5-min Rain = 0
KGU1 250401Z 02002KT 21/07 A3019 RMK A01 T02130065  RH  039%=      5-min Rain = 0
KGU1 250402Z 01002KT 21/07 A3019 RMK A01 T02140066  RH  039%=      5-min Rain = 0
KGU1 250403Z 35004KT 21/07 A3019 RMK A01 T02130065  RH  039%=      5-min Rain = 0
KGU1 250404Z 01005KT 21/06 A3019 RMK A01 T02120064  RH  039%=      5-min Rain = 0
KGU1 250405Z 01005KT 21/06 A3019 RMK A01 T02120064  RH  039%=      5-min Rain = 0
KGU1 250406Z 01005KT 21/06 A3019 RMK A01 T02130064  RH  039%=      5-min Rain = 0
KGU1 250407Z 01005KT 21/06 A3019 RMK A01 T02130064  RH  039%=      5-min Rain = 0
KGU1 250408Z 01004KT 21/06 A3019 RMK A01 T02130064  RH  039%=      5-min Rain = 0
KGU1 250409Z 01005KT 21/06 A3019 RMK A01 T02130064  RH  039%=      5-min Rain = 0
KGU1 250410Z 01005KT 21/06 A3019 RMK A01 T02120063  RH  039%=      5-min Rain = 0
KGU1 250411Z 00004KT 21/06 A3019 RMK A01 T02120063  RH  039%=      5-min Rain = 0
KGU1 250412Z 36003KT 21/06 A3019 RMK A01 T02120063  RH  039%=      5-min Rain = 0
KGU1 250413Z 36004KT 21/06 A3019 RMK A01 T02110063  RH  039%=      5-min Rain = 0
KGU1 250414Z 00005KT 21/06 A3019 RMK A01 T02100063  RH  039%=      5-min Rain = 0
KGU1 250415Z 01005KT 21/06 A3019 RMK A01 T02090062  RH  039%=      5-min Rain = 0
KGU1 250416Z 01003KT 21/06 A3019 RMK A01 T02100062  RH  039%=      5-min Rain = 0
KGU1 250417Z 06003KT 21/06 A3019 RMK A01 T02100061  RH  039%=      5-min Rain = 0
KGU1 250418Z 04004KT 21/06 A3019 RMK A01 T02130061  RH  038%=      5-min Rain = 0
KGU1 250419Z 01004KT 21/06 A3019 RMK A01 T02130061  RH  038%=      5-min Rain = 0
KGU1 250420Z 02005KT 21/06 A3019 RMK A01 T02140061  RH  038%=      5-min Rain = 0
KGU1 250421Z 00005KT 22/06 A3019 RMK A01 T02150061  RH  038%=      5-min Rain = 0
KGU1 250422Z 01005KT 22/06 A3019 RMK A01 T02150061  RH  038%=      5-min Rain = 0
KGU1 250423Z 01006KT 22/06 A3019 RMK A01 T02150061  RH  038%=      5-min Rain = 0
KGU1 250424Z 02004KT 22/06 A3019 RMK A01 T02160061  RH  037%=      5-min Rain = 0
KGU1 250425Z 02003KT 22/06 A3019 RMK A01 T02150061  RH  038%=      5-min Rain = 0
KGU1 250426Z 01002KT 21/06 A3019 RMK A01 T02140061  RH  038%=      5-min Rain = 0
KGU1 250427Z 35001KT 21/06 A3019 RMK A01 T02140061  RH  038%=      5-min Rain = 0
KGU1 250428Z 34002KT 21/06 A3019 RMK A01 T02140061  RH  038%=      5-min Rain = 0
KGU1 250429Z 01002KT 21/06 A3019 RMK A01 T02140060  RH  038%=      5-min Rain = 0
KGU1 250430Z 36002KT 21/06 A3019 RMK A01 T02140061  RH  038%=      5-min Rain = 0
KGU1 250431Z 00002KT 21/06 A3019 RMK A01 T02130061  RH  038%=      5-min Rain = 0
KGU1 250432Z 02002KT 21/06 A3019 RMK A01 T02120061  RH  038%=      5-min Rain = 0
KGU1 250433Z 03004KT 21/06 A3019 RMK A01 T02110061  RH  038%=      5-min Rain = 0
KGU1 250434Z 02005KT 21/06 A3019 RMK A01 T02110060  RH  038%=      5-min Rain = 0
KGU1 250435Z 02005KT 21/06 A3019 RMK A01 T02110060  RH  038%=      5-min Rain = 0
KGU1 250436Z 01004KT 21/06 A3019 RMK A01 T02120060  RH  038%=      5-min Rain = 0
KGU1 250437Z 00003KT 21/06 A3019 RMK A01 T02130060  RH  038%=      5-min Rain = 0
KGU1 250438Z 00003KT 21/06 A3019 RMK A01 T02140060  RH  038%=      5-min Rain = 0
KGU1 250439Z 00003KT 21/06 A3019 RMK A01 T02140059  RH  037%=      5-min Rain = 0
KGU1 250440Z 00005KT 21/06 A3019 RMK A01 T02140059  RH  037%=      5-min Rain = 0
KGU1 250441Z 36005KT 21/06 A3019 RMK A01 T02130060  RH  038%=      5-min Rain = 0
KGU1 250442Z 02004KT 21/06 A3019 RMK A01 T02110060  RH  038%=      5-min Rain = 0
KGU1 250443Z 01002KT 21/06 A3019 RMK A01 T02100060  RH  038%=      5-min Rain = 0
KGU1 250444Z 35002KT 21/06 A3019 RMK A01 T02100060  RH  039%=      5-min Rain = 0
KGU1 250445Z 35001KT 21/06 A3019 RMK A01 T02090060  RH  039%=      5-min Rain = 0
KGU1 250446Z 31001KT 21/06 A3019 RMK A01 T02070060  RH  039%=      5-min Rain = 0
KGU1 250447Z 30002KT 20/06 A3019 RMK A01 T02040060  RH  040%=      5-min Rain = 0
KGU1 250448Z 28003KT 20/06 A3019 RMK A01 T02020060  RH  040%=      5-min Rain = 0
KGU1 250449Z 28003KT 20/06 A3019 RMK A01 T02010060  RH  041%=      5-min Rain = 0
KGU1 250450Z 28004KT 20/06 A3019 RMK A01 T01990061  RH  041%=      5-min Rain = 0
KGU1 250451Z 29004KT 20/06 A3019 RMK A01 T01970061  RH  042%=      5-min Rain = 0
KGU1 250452Z 31004KT 20/06 A3019 RMK A01 T01960061  RH  042%=      5-min Rain = 0
KGU1 250453Z 30004KT 20/06 A3019 RMK A01 T01950061  RH  043%=      5-min Rain = 0
KGU1 250454Z 30004KT 20/06 A3019 RMK A01 T01950061  RH  043%=      5-min Rain = 0
KGU1 250455Z 30003KT 20/06 A3019 RMK A01 T01970061  RH  042%=      5-min Rain = 0
KGU1 250456Z 30003KT 20/06 A3019 RMK A01 T01970061  RH  042%=      5-min Rain = 0
KGU1 250457Z 31003KT 20/06 A3019 RMK A01 T01950060  RH  042%=      5-min Rain = 0
KGU1 250458Z 29003KT 19/06 A3019 RMK A01 T01940060  RH  043%=      5-min Rain = 0
KGU1 250459Z 29004KT 19/06 A3019 RMK A01 T01930061  RH  043%=      5-min Rain = 0

Page generated in 0.1384 seconds.